<?xml version="1.0" encoding="UTF-8" standalone="no" ?>
<gpx xmlns="http://www.topografix.com/GPX/1/1" xmlns:xsi="http://www.w3.org/2001/XMLSchema-instance" xsi:schemaLocation="http://www.topografix.com/GPX/1/1 http://www.topografix.com/GPX/1/1/gpx.xsd" version="1.1" creator="VisuGPX - https://www.visugpx.com">
  <metadata>
    <name>Ailefroide et barre des écrins</name>
  </metadata>
  <trk>
    <name><![CDATA[Ailefroide J2 21.07.20]]></name>
    <trkseg>
      <trkpt lat="44.87332" lon="6.3904">
        <ele>2500.05</ele>
        <time>2020-07-21T02:01:59Z</time>
      </trkpt>
      <trkpt lat="44.87334" lon="6.39039">
        <ele>2500.05</ele>
        <time>2020-07-21T02:02:06Z</time>
      </trkpt>
      <trkpt lat="44.87323" lon="6.38977">
        <ele>2494.28</ele>
        <time>2020-07-21T02:06:12Z</time>
      </trkpt>
      <trkpt lat="44.87322" lon="6.38958">
        <ele>2490.43</ele>
        <time>2020-07-21T02:06:29Z</time>
      </trkpt>
      <trkpt lat="44.87326" lon="6.38923">
        <ele>2485.15</ele>
        <time>2020-07-21T02:07:00Z</time>
      </trkpt>
      <trkpt lat="44.87326" lon="6.38901">
        <ele>2481.3</ele>
        <time>2020-07-21T02:07:17Z</time>
      </trkpt>
      <trkpt lat="44.87322" lon="6.38906">
        <ele>2476.97</ele>
        <time>2020-07-21T02:07:35Z</time>
      </trkpt>
      <trkpt lat="44.8731" lon="6.38915">
        <ele>2472.65</ele>
        <time>2020-07-21T02:08:28Z</time>
      </trkpt>
      <trkpt lat="44.87308" lon="6.38898">
        <ele>2468.8</ele>
        <time>2020-07-21T02:08:45Z</time>
      </trkpt>
      <trkpt lat="44.87293" lon="6.38883">
        <ele>2462.55</ele>
        <time>2020-07-21T02:09:29Z</time>
      </trkpt>
      <trkpt lat="44.87284" lon="6.38864">
        <ele>2456.31</ele>
        <time>2020-07-21T02:09:56Z</time>
      </trkpt>
      <trkpt lat="44.87276" lon="6.38859">
        <ele>2451.98</ele>
        <time>2020-07-21T02:10:23Z</time>
      </trkpt>
      <trkpt lat="44.87269" lon="6.38822">
        <ele>2447.17</ele>
        <time>2020-07-21T02:10:55Z</time>
      </trkpt>
      <trkpt lat="44.87265" lon="6.38784">
        <ele>2451.02</ele>
        <time>2020-07-21T02:11:43Z</time>
      </trkpt>
      <trkpt lat="44.87236" lon="6.38622">
        <ele>2457.27</ele>
        <time>2020-07-21T02:14:29Z</time>
      </trkpt>
      <trkpt lat="44.87234" lon="6.38539">
        <ele>2462.07</ele>
        <time>2020-07-21T02:15:52Z</time>
      </trkpt>
      <trkpt lat="44.87227" lon="6.38486">
        <ele>2465.92</ele>
        <time>2020-07-21T02:16:55Z</time>
      </trkpt>
      <trkpt lat="44.87226" lon="6.38434">
        <ele>2469.76</ele>
        <time>2020-07-21T02:18:01Z</time>
      </trkpt>
      <trkpt lat="44.87244" lon="6.3835">
        <ele>2476.49</ele>
        <time>2020-07-21T02:19:47Z</time>
      </trkpt>
      <trkpt lat="44.87224" lon="6.38238">
        <ele>2482.26</ele>
        <time>2020-07-21T02:21:43Z</time>
      </trkpt>
      <trkpt lat="44.87214" lon="6.38156">
        <ele>2486.59</ele>
        <time>2020-07-21T02:23:06Z</time>
      </trkpt>
      <trkpt lat="44.87222" lon="6.38135">
        <ele>2490.43</ele>
        <time>2020-07-21T02:23:39Z</time>
      </trkpt>
      <trkpt lat="44.87225" lon="6.38102">
        <ele>2494.28</ele>
        <time>2020-07-21T02:24:27Z</time>
      </trkpt>
      <trkpt lat="44.87232" lon="6.38074">
        <ele>2498.6</ele>
        <time>2020-07-21T02:25:05Z</time>
      </trkpt>
      <trkpt lat="44.87231" lon="6.38052">
        <ele>2501.97</ele>
        <time>2020-07-21T02:25:37Z</time>
      </trkpt>
      <trkpt lat="44.87239" lon="6.38023">
        <ele>2505.33</ele>
        <time>2020-07-21T02:26:19Z</time>
      </trkpt>
      <trkpt lat="44.87239" lon="6.38022">
        <ele>2505.33</ele>
        <time>2020-07-21T02:26:42Z</time>
      </trkpt>
      <trkpt lat="44.87251" lon="6.38008">
        <ele>2509.18</ele>
        <time>2020-07-21T02:27:36Z</time>
      </trkpt>
      <trkpt lat="44.8726" lon="6.37983">
        <ele>2513.5</ele>
        <time>2020-07-21T02:28:29Z</time>
      </trkpt>
      <trkpt lat="44.87272" lon="6.37966">
        <ele>2517.35</ele>
        <time>2020-07-21T02:29:01Z</time>
      </trkpt>
      <trkpt lat="44.87275" lon="6.37928">
        <ele>2520.71</ele>
        <time>2020-07-21T02:29:55Z</time>
      </trkpt>
      <trkpt lat="44.87283" lon="6.37916">
        <ele>2524.08</ele>
        <time>2020-07-21T02:31:15Z</time>
      </trkpt>
      <trkpt lat="44.87287" lon="6.37915">
        <ele>2524.08</ele>
        <time>2020-07-21T02:33:01Z</time>
      </trkpt>
      <trkpt lat="44.87293" lon="6.37903">
        <ele>2527.44</ele>
        <time>2020-07-21T02:34:03Z</time>
      </trkpt>
      <trkpt lat="44.87293" lon="6.379">
        <ele>2527.44</ele>
        <time>2020-07-21T02:34:10Z</time>
      </trkpt>
      <trkpt lat="44.87309" lon="6.37869">
        <ele>2531.29</ele>
        <time>2020-07-21T02:35:00Z</time>
      </trkpt>
      <trkpt lat="44.87345" lon="6.37785">
        <ele>2538.02</ele>
        <time>2020-07-21T02:36:56Z</time>
      </trkpt>
      <trkpt lat="44.87377" lon="6.37699">
        <ele>2545.23</ele>
        <time>2020-07-21T02:39:21Z</time>
      </trkpt>
      <trkpt lat="44.87384" lon="6.37682">
        <ele>2549.07</ele>
        <time>2020-07-21T02:39:54Z</time>
      </trkpt>
      <trkpt lat="44.87357" lon="6.37558">
        <ele>2544.75</ele>
        <time>2020-07-21T02:44:03Z</time>
      </trkpt>
      <trkpt lat="44.87281" lon="6.37417">
        <ele>2539.94</ele>
        <time>2020-07-21T02:48:57Z</time>
      </trkpt>
      <trkpt lat="44.87278" lon="6.37406">
        <ele>2540.42</ele>
        <time>2020-07-21T02:49:12Z</time>
      </trkpt>
      <trkpt lat="44.87264" lon="6.37343">
        <ele>2545.71</ele>
        <time>2020-07-21T02:51:14Z</time>
      </trkpt>
      <trkpt lat="44.87262" lon="6.3732">
        <ele>2549.55</ele>
        <time>2020-07-21T02:51:49Z</time>
      </trkpt>
      <trkpt lat="44.87261" lon="6.37299">
        <ele>2553.88</ele>
        <time>2020-07-21T02:52:23Z</time>
      </trkpt>
      <trkpt lat="44.87263" lon="6.3728">
        <ele>2558.69</ele>
        <time>2020-07-21T02:53:00Z</time>
      </trkpt>
      <trkpt lat="44.87264" lon="6.37266">
        <ele>2562.05</ele>
        <time>2020-07-21T02:53:31Z</time>
      </trkpt>
      <trkpt lat="44.87266" lon="6.37248">
        <ele>2566.86</ele>
        <time>2020-07-21T02:54:20Z</time>
      </trkpt>
      <trkpt lat="44.87261" lon="6.37226">
        <ele>2571.66</ele>
        <time>2020-07-21T02:55:11Z</time>
      </trkpt>
      <trkpt lat="44.87256" lon="6.37209">
        <ele>2575.99</ele>
        <time>2020-07-21T02:55:56Z</time>
      </trkpt>
      <trkpt lat="44.87255" lon="6.37207">
        <ele>2575.99</ele>
        <time>2020-07-21T02:56:02Z</time>
      </trkpt>
      <trkpt lat="44.87254" lon="6.37184">
        <ele>2580.8</ele>
        <time>2020-07-21T02:56:54Z</time>
      </trkpt>
      <trkpt lat="44.87253" lon="6.37172">
        <ele>2585.12</ele>
        <time>2020-07-21T02:57:37Z</time>
      </trkpt>
      <trkpt lat="44.87248" lon="6.37162">
        <ele>2588.49</ele>
        <time>2020-07-21T02:58:11Z</time>
      </trkpt>
      <trkpt lat="44.8725" lon="6.3715">
        <ele>2592.33</ele>
        <time>2020-07-21T02:58:39Z</time>
      </trkpt>
      <trkpt lat="44.8726" lon="6.37145">
        <ele>2595.7</ele>
        <time>2020-07-21T02:59:06Z</time>
      </trkpt>
      <trkpt lat="44.87263" lon="6.37142">
        <ele>2600.02</ele>
        <time>2020-07-21T02:59:36Z</time>
      </trkpt>
      <trkpt lat="44.87268" lon="6.37131">
        <ele>2605.31</ele>
        <time>2020-07-21T03:00:11Z</time>
      </trkpt>
      <trkpt lat="44.87268" lon="6.3713">
        <ele>2605.31</ele>
        <time>2020-07-21T03:00:13Z</time>
      </trkpt>
      <trkpt lat="44.8727" lon="6.37119">
        <ele>2608.67</ele>
        <time>2020-07-21T03:00:41Z</time>
      </trkpt>
      <trkpt lat="44.87271" lon="6.37107">
        <ele>2613.48</ele>
        <time>2020-07-21T03:01:14Z</time>
      </trkpt>
      <trkpt lat="44.87276" lon="6.37092">
        <ele>2618.77</ele>
        <time>2020-07-21T03:01:59Z</time>
      </trkpt>
      <trkpt lat="44.87281" lon="6.37085">
        <ele>2623.09</ele>
        <time>2020-07-21T03:02:31Z</time>
      </trkpt>
      <trkpt lat="44.87285" lon="6.37081">
        <ele>2626.94</ele>
        <time>2020-07-21T03:03:02Z</time>
      </trkpt>
      <trkpt lat="44.87291" lon="6.37074">
        <ele>2630.3</ele>
        <time>2020-07-21T03:04:11Z</time>
      </trkpt>
      <trkpt lat="44.87296" lon="6.37078">
        <ele>2633.67</ele>
        <time>2020-07-21T03:05:18Z</time>
      </trkpt>
      <trkpt lat="44.87298" lon="6.37082">
        <ele>2637.99</ele>
        <time>2020-07-21T03:05:52Z</time>
      </trkpt>
      <trkpt lat="44.87302" lon="6.37085">
        <ele>2641.36</ele>
        <time>2020-07-21T03:06:00Z</time>
      </trkpt>
      <trkpt lat="44.87305" lon="6.37086">
        <ele>2641.36</ele>
        <time>2020-07-21T03:06:26Z</time>
      </trkpt>
      <trkpt lat="44.87309" lon="6.37083">
        <ele>2645.21</ele>
        <time>2020-07-21T03:07:27Z</time>
      </trkpt>
      <trkpt lat="44.87319" lon="6.37088">
        <ele>2650.49</ele>
        <time>2020-07-21T03:08:03Z</time>
      </trkpt>
      <trkpt lat="44.87329" lon="6.37087">
        <ele>2654.34</ele>
        <time>2020-07-21T03:08:36Z</time>
      </trkpt>
      <trkpt lat="44.87335" lon="6.37086">
        <ele>2658.18</ele>
        <time>2020-07-21T03:09:05Z</time>
      </trkpt>
      <trkpt lat="44.8734" lon="6.3708">
        <ele>2662.51</ele>
        <time>2020-07-21T03:09:38Z</time>
      </trkpt>
      <trkpt lat="44.87341" lon="6.37068">
        <ele>2665.87</ele>
        <time>2020-07-21T03:10:04Z</time>
      </trkpt>
      <trkpt lat="44.87342" lon="6.37057">
        <ele>2670.68</ele>
        <time>2020-07-21T03:10:39Z</time>
      </trkpt>
      <trkpt lat="44.87348" lon="6.37053">
        <ele>2675.01</ele>
        <time>2020-07-21T03:11:13Z</time>
      </trkpt>
      <trkpt lat="44.87352" lon="6.37045">
        <ele>2679.81</ele>
        <time>2020-07-21T03:11:48Z</time>
      </trkpt>
      <trkpt lat="44.87362" lon="6.37044">
        <ele>2685.1</ele>
        <time>2020-07-21T03:12:22Z</time>
      </trkpt>
      <trkpt lat="44.87368" lon="6.37042">
        <ele>2688.46</ele>
        <time>2020-07-21T03:13:00Z</time>
      </trkpt>
      <trkpt lat="44.87376" lon="6.37043">
        <ele>2693.75</ele>
        <time>2020-07-21T03:13:33Z</time>
      </trkpt>
      <trkpt lat="44.87384" lon="6.37045">
        <ele>2698.08</ele>
        <time>2020-07-21T03:14:05Z</time>
      </trkpt>
      <trkpt lat="44.87392" lon="6.37046">
        <ele>2702.88</ele>
        <time>2020-07-21T03:14:37Z</time>
      </trkpt>
      <trkpt lat="44.87398" lon="6.37041">
        <ele>2707.21</ele>
        <time>2020-07-21T03:15:08Z</time>
      </trkpt>
      <trkpt lat="44.87402" lon="6.37033">
        <ele>2711.06</ele>
        <time>2020-07-21T03:15:37Z</time>
      </trkpt>
      <trkpt lat="44.87405" lon="6.37028">
        <ele>2714.42</ele>
        <time>2020-07-21T03:15:53Z</time>
      </trkpt>
      <trkpt lat="44.87412" lon="6.3703">
        <ele>2718.75</ele>
        <time>2020-07-21T03:16:25Z</time>
      </trkpt>
      <trkpt lat="44.87419" lon="6.37024">
        <ele>2724.03</ele>
        <time>2020-07-21T03:17:12Z</time>
      </trkpt>
      <trkpt lat="44.87423" lon="6.37023">
        <ele>2727.4</ele>
        <time>2020-07-21T03:17:28Z</time>
      </trkpt>
      <trkpt lat="44.87428" lon="6.37024">
        <ele>2731.72</ele>
        <time>2020-07-21T03:17:58Z</time>
      </trkpt>
      <trkpt lat="44.87429" lon="6.37025">
        <ele>2731.72</ele>
        <time>2020-07-21T03:18:30Z</time>
      </trkpt>
      <trkpt lat="44.87432" lon="6.37018">
        <ele>2735.09</ele>
        <time>2020-07-21T03:22:11Z</time>
      </trkpt>
      <trkpt lat="44.87436" lon="6.36986">
        <ele>2739.41</ele>
        <time>2020-07-21T03:23:55Z</time>
      </trkpt>
      <trkpt lat="44.87444" lon="6.36955">
        <ele>2745.18</ele>
        <time>2020-07-21T03:26:33Z</time>
      </trkpt>
      <trkpt lat="44.87445" lon="6.36947">
        <ele>2749.03</ele>
        <time>2020-07-21T03:27:03Z</time>
      </trkpt>
      <trkpt lat="44.8745" lon="6.36944">
        <ele>2749.03</ele>
        <time>2020-07-21T03:27:25Z</time>
      </trkpt>
      <trkpt lat="44.87446" lon="6.3692">
        <ele>2752.39</ele>
        <time>2020-07-21T03:28:42Z</time>
      </trkpt>
      <trkpt lat="44.87445" lon="6.3691">
        <ele>2752.39</ele>
        <time>2020-07-21T03:29:00Z</time>
      </trkpt>
      <trkpt lat="44.87444" lon="6.36876">
        <ele>2757.68</ele>
        <time>2020-07-21T03:29:46Z</time>
      </trkpt>
      <trkpt lat="44.8745" lon="6.36856">
        <ele>2762.49</ele>
        <time>2020-07-21T03:30:28Z</time>
      </trkpt>
      <trkpt lat="44.87452" lon="6.36835">
        <ele>2767.29</ele>
        <time>2020-07-21T03:31:00Z</time>
      </trkpt>
      <trkpt lat="44.87453" lon="6.36822">
        <ele>2771.62</ele>
        <time>2020-07-21T03:31:32Z</time>
      </trkpt>
      <trkpt lat="44.87459" lon="6.36815">
        <ele>2776.42</ele>
        <time>2020-07-21T03:32:05Z</time>
      </trkpt>
      <trkpt lat="44.87463" lon="6.36805">
        <ele>2780.75</ele>
        <time>2020-07-21T03:32:31Z</time>
      </trkpt>
      <trkpt lat="44.87464" lon="6.36784">
        <ele>2784.12</ele>
        <time>2020-07-21T03:33:04Z</time>
      </trkpt>
      <trkpt lat="44.87469" lon="6.36769">
        <ele>2788.44</ele>
        <time>2020-07-21T03:33:43Z</time>
      </trkpt>
      <trkpt lat="44.87477" lon="6.36756">
        <ele>2792.29</ele>
        <time>2020-07-21T03:34:13Z</time>
      </trkpt>
      <trkpt lat="44.87481" lon="6.36721">
        <ele>2797.09</ele>
        <time>2020-07-21T03:35:46Z</time>
      </trkpt>
      <trkpt lat="44.87483" lon="6.36713">
        <ele>2801.42</ele>
        <time>2020-07-21T03:37:24Z</time>
      </trkpt>
      <trkpt lat="44.87488" lon="6.36696">
        <ele>2808.15</ele>
        <time>2020-07-21T03:37:59Z</time>
      </trkpt>
      <trkpt lat="44.87494" lon="6.36692">
        <ele>2813.92</ele>
        <time>2020-07-21T03:38:43Z</time>
      </trkpt>
      <trkpt lat="44.87493" lon="6.36681">
        <ele>2817.28</ele>
        <time>2020-07-21T03:38:57Z</time>
      </trkpt>
      <trkpt lat="44.87489" lon="6.36671">
        <ele>2820.65</ele>
        <time>2020-07-21T03:39:22Z</time>
      </trkpt>
      <trkpt lat="44.87466" lon="6.36625">
        <ele>2826.41</ele>
        <time>2020-07-21T03:40:33Z</time>
      </trkpt>
      <trkpt lat="44.8746" lon="6.36596">
        <ele>2829.78</ele>
        <time>2020-07-21T03:41:08Z</time>
      </trkpt>
      <trkpt lat="44.8746" lon="6.36586">
        <ele>2834.58</ele>
        <time>2020-07-21T03:41:37Z</time>
      </trkpt>
      <trkpt lat="44.8746" lon="6.3658">
        <ele>2834.58</ele>
        <time>2020-07-21T03:42:09Z</time>
      </trkpt>
      <trkpt lat="44.87465" lon="6.36556">
        <ele>2839.39</ele>
        <time>2020-07-21T03:42:46Z</time>
      </trkpt>
      <trkpt lat="44.87476" lon="6.3651">
        <ele>2844.2</ele>
        <time>2020-07-21T03:43:43Z</time>
      </trkpt>
      <trkpt lat="44.87479" lon="6.36473">
        <ele>2849</ele>
        <time>2020-07-21T03:57:15Z</time>
      </trkpt>
      <trkpt lat="44.87489" lon="6.36452">
        <ele>2853.81</ele>
        <time>2020-07-21T03:57:55Z</time>
      </trkpt>
      <trkpt lat="44.87499" lon="6.3644">
        <ele>2858.14</ele>
        <time>2020-07-21T03:58:42Z</time>
      </trkpt>
      <trkpt lat="44.87505" lon="6.36433">
        <ele>2861.5</ele>
        <time>2020-07-21T03:58:59Z</time>
      </trkpt>
      <trkpt lat="44.87512" lon="6.36416">
        <ele>2866.31</ele>
        <time>2020-07-21T03:59:33Z</time>
      </trkpt>
      <trkpt lat="44.8752" lon="6.36396">
        <ele>2870.63</ele>
        <time>2020-07-21T04:00:11Z</time>
      </trkpt>
      <trkpt lat="44.8753" lon="6.36362">
        <ele>2874</ele>
        <time>2020-07-21T04:01:02Z</time>
      </trkpt>
      <trkpt lat="44.87541" lon="6.36342">
        <ele>2879.29</ele>
        <time>2020-07-21T04:01:41Z</time>
      </trkpt>
      <trkpt lat="44.87554" lon="6.36318">
        <ele>2885.05</ele>
        <time>2020-07-21T04:02:27Z</time>
      </trkpt>
      <trkpt lat="44.8757" lon="6.36336">
        <ele>2891.3</ele>
        <time>2020-07-21T04:03:09Z</time>
      </trkpt>
      <trkpt lat="44.87581" lon="6.36337">
        <ele>2897.07</ele>
        <time>2020-07-21T04:03:48Z</time>
      </trkpt>
      <trkpt lat="44.87591" lon="6.36318">
        <ele>2903.32</ele>
        <time>2020-07-21T04:04:33Z</time>
      </trkpt>
      <trkpt lat="44.87595" lon="6.36314">
        <ele>2906.68</ele>
        <time>2020-07-21T04:04:54Z</time>
      </trkpt>
      <trkpt lat="44.87604" lon="6.36337">
        <ele>2910.05</ele>
        <time>2020-07-21T04:05:33Z</time>
      </trkpt>
      <trkpt lat="44.87608" lon="6.36331">
        <ele>2913.41</ele>
        <time>2020-07-21T04:05:54Z</time>
      </trkpt>
      <trkpt lat="44.87618" lon="6.36323">
        <ele>2918.7</ele>
        <time>2020-07-21T04:06:34Z</time>
      </trkpt>
      <trkpt lat="44.87626" lon="6.36322">
        <ele>2923.99</ele>
        <time>2020-07-21T04:07:11Z</time>
      </trkpt>
      <trkpt lat="44.87628" lon="6.36317">
        <ele>2927.35</ele>
        <time>2020-07-21T04:07:27Z</time>
      </trkpt>
      <trkpt lat="44.87629" lon="6.36315">
        <ele>2927.35</ele>
        <time>2020-07-21T04:07:29Z</time>
      </trkpt>
      <trkpt lat="44.87639" lon="6.36318">
        <ele>2930.72</ele>
        <time>2020-07-21T04:08:05Z</time>
      </trkpt>
      <trkpt lat="44.87642" lon="6.36305">
        <ele>2934.08</ele>
        <time>2020-07-21T04:08:26Z</time>
      </trkpt>
      <trkpt lat="44.87652" lon="6.36311">
        <ele>2939.85</ele>
        <time>2020-07-21T04:09:05Z</time>
      </trkpt>
      <trkpt lat="44.87654" lon="6.36288">
        <ele>2944.66</ele>
        <time>2020-07-21T04:09:42Z</time>
      </trkpt>
      <trkpt lat="44.87665" lon="6.36297">
        <ele>2948.98</ele>
        <time>2020-07-21T04:10:21Z</time>
      </trkpt>
      <trkpt lat="44.87667" lon="6.36278">
        <ele>2954.27</ele>
        <time>2020-07-21T04:10:59Z</time>
      </trkpt>
      <trkpt lat="44.87678" lon="6.36284">
        <ele>2959.08</ele>
        <time>2020-07-21T04:11:37Z</time>
      </trkpt>
      <trkpt lat="44.87681" lon="6.36274">
        <ele>2963.4</ele>
        <time>2020-07-21T04:12:17Z</time>
      </trkpt>
      <trkpt lat="44.87689" lon="6.36266">
        <ele>2969.65</ele>
        <time>2020-07-21T04:13:02Z</time>
      </trkpt>
      <trkpt lat="44.87703" lon="6.36288">
        <ele>2974.94</ele>
        <time>2020-07-21T04:13:45Z</time>
      </trkpt>
      <trkpt lat="44.87703" lon="6.36266">
        <ele>2980.22</ele>
        <time>2020-07-21T04:14:32Z</time>
      </trkpt>
      <trkpt lat="44.87707" lon="6.36243">
        <ele>2985.99</ele>
        <time>2020-07-21T04:15:14Z</time>
      </trkpt>
      <trkpt lat="44.87715" lon="6.36236">
        <ele>2991.76</ele>
        <time>2020-07-21T04:15:54Z</time>
      </trkpt>
      <trkpt lat="44.87721" lon="6.36238">
        <ele>2995.12</ele>
        <time>2020-07-21T04:16:13Z</time>
      </trkpt>
      <trkpt lat="44.87725" lon="6.36217">
        <ele>3001.37</ele>
        <time>2020-07-21T04:16:53Z</time>
      </trkpt>
      <trkpt lat="44.8773" lon="6.36199">
        <ele>3007.14</ele>
        <time>2020-07-21T04:17:35Z</time>
      </trkpt>
      <trkpt lat="44.87733" lon="6.36187">
        <ele>3010.51</ele>
        <time>2020-07-21T04:17:55Z</time>
      </trkpt>
      <trkpt lat="44.8774" lon="6.36167">
        <ele>3015.79</ele>
        <time>2020-07-21T04:18:37Z</time>
      </trkpt>
      <trkpt lat="44.87749" lon="6.36144">
        <ele>3021.56</ele>
        <time>2020-07-21T04:19:25Z</time>
      </trkpt>
      <trkpt lat="44.87758" lon="6.36132">
        <ele>3027.33</ele>
        <time>2020-07-21T04:20:06Z</time>
      </trkpt>
      <trkpt lat="44.87766" lon="6.36114">
        <ele>3032.14</ele>
        <time>2020-07-21T04:20:45Z</time>
      </trkpt>
      <trkpt lat="44.87769" lon="6.36106">
        <ele>3035.5</ele>
        <time>2020-07-21T04:21:07Z</time>
      </trkpt>
      <trkpt lat="44.87777" lon="6.36084">
        <ele>3041.75</ele>
        <time>2020-07-21T04:21:55Z</time>
      </trkpt>
      <trkpt lat="44.87779" lon="6.36064">
        <ele>3045.59</ele>
        <time>2020-07-21T04:22:41Z</time>
      </trkpt>
      <trkpt lat="44.87782" lon="6.36053">
        <ele>3048.96</ele>
        <time>2020-07-21T04:24:05Z</time>
      </trkpt>
      <trkpt lat="44.87786" lon="6.36047">
        <ele>3054.25</ele>
        <time>2020-07-21T04:26:59Z</time>
      </trkpt>
      <trkpt lat="44.87788" lon="6.36044">
        <ele>3058.09</ele>
        <time>2020-07-21T04:28:10Z</time>
      </trkpt>
      <trkpt lat="44.87792" lon="6.36032">
        <ele>3063.86</ele>
        <time>2020-07-21T04:28:51Z</time>
      </trkpt>
      <trkpt lat="44.87795" lon="6.36028">
        <ele>3068.67</ele>
        <time>2020-07-21T04:30:26Z</time>
      </trkpt>
      <trkpt lat="44.87799" lon="6.36026">
        <ele>3073.95</ele>
        <time>2020-07-21T04:31:35Z</time>
      </trkpt>
      <trkpt lat="44.87793" lon="6.36011">
        <ele>3079.72</ele>
        <time>2020-07-21T04:41:20Z</time>
      </trkpt>
      <trkpt lat="44.87809" lon="6.36022">
        <ele>3087.41</ele>
        <time>2020-07-21T04:45:59Z</time>
      </trkpt>
      <trkpt lat="44.87813" lon="6.36037">
        <ele>3092.7</ele>
        <time>2020-07-21T04:47:28Z</time>
      </trkpt>
      <trkpt lat="44.87817" lon="6.36052">
        <ele>3096.54</ele>
        <time>2020-07-21T04:48:25Z</time>
      </trkpt>
      <trkpt lat="44.87815" lon="6.36082">
        <ele>3105.2</ele>
        <time>2020-07-21T04:50:20Z</time>
      </trkpt>
      <trkpt lat="44.87817" lon="6.36091">
        <ele>3109.04</ele>
        <time>2020-07-21T04:50:54Z</time>
      </trkpt>
      <trkpt lat="44.87822" lon="6.36109">
        <ele>3113.85</ele>
        <time>2020-07-21T04:51:43Z</time>
      </trkpt>
      <trkpt lat="44.8782" lon="6.36129">
        <ele>3118.65</ele>
        <time>2020-07-21T04:52:21Z</time>
      </trkpt>
      <trkpt lat="44.87823" lon="6.36138">
        <ele>3123.46</ele>
        <time>2020-07-21T04:52:55Z</time>
      </trkpt>
      <trkpt lat="44.87821" lon="6.36146">
        <ele>3126.83</ele>
        <time>2020-07-21T04:53:13Z</time>
      </trkpt>
      <trkpt lat="44.8782" lon="6.36157">
        <ele>3131.15</ele>
        <time>2020-07-21T04:53:51Z</time>
      </trkpt>
      <trkpt lat="44.87819" lon="6.36162">
        <ele>3129.71</ele>
        <time>2020-07-21T04:53:57Z</time>
      </trkpt>
      <trkpt lat="44.87822" lon="6.36183">
        <ele>3133.55</ele>
        <time>2020-07-21T04:55:02Z</time>
      </trkpt>
      <trkpt lat="44.8782" lon="6.36191">
        <ele>3138.36</ele>
        <time>2020-07-21T04:55:35Z</time>
      </trkpt>
      <trkpt lat="44.87822" lon="6.36204">
        <ele>3143.65</ele>
        <time>2020-07-21T04:56:07Z</time>
      </trkpt>
      <trkpt lat="44.87822" lon="6.36219">
        <ele>3147.49</ele>
        <time>2020-07-21T04:56:41Z</time>
      </trkpt>
      <trkpt lat="44.8783" lon="6.36252">
        <ele>3152.3</ele>
        <time>2020-07-21T04:58:49Z</time>
      </trkpt>
      <trkpt lat="44.8783" lon="6.3626">
        <ele>3156.63</ele>
        <time>2020-07-21T04:59:22Z</time>
      </trkpt>
      <trkpt lat="44.87828" lon="6.36268">
        <ele>3160.95</ele>
        <time>2020-07-21T04:59:55Z</time>
      </trkpt>
      <trkpt lat="44.87827" lon="6.36281">
        <ele>3164.8</ele>
        <time>2020-07-21T05:00:21Z</time>
      </trkpt>
      <trkpt lat="44.87827" lon="6.36286">
        <ele>3164.8</ele>
        <time>2020-07-21T05:00:27Z</time>
      </trkpt>
      <trkpt lat="44.87832" lon="6.36298">
        <ele>3178.26</ele>
        <time>2020-07-21T05:13:57Z</time>
      </trkpt>
      <trkpt lat="44.87834" lon="6.36293">
        <ele>3183.06</ele>
        <time>2020-07-21T05:14:53Z</time>
      </trkpt>
      <trkpt lat="44.87838" lon="6.36288">
        <ele>3186.91</ele>
        <time>2020-07-21T05:15:32Z</time>
      </trkpt>
      <trkpt lat="44.87841" lon="6.36287">
        <ele>3191.71</ele>
        <time>2020-07-21T05:16:03Z</time>
      </trkpt>
      <trkpt lat="44.87844" lon="6.3628">
        <ele>3196.04</ele>
        <time>2020-07-21T05:16:39Z</time>
      </trkpt>
      <trkpt lat="44.87847" lon="6.36279">
        <ele>3199.89</ele>
        <time>2020-07-21T05:17:05Z</time>
      </trkpt>
      <trkpt lat="44.8785" lon="6.36277">
        <ele>3204.69</ele>
        <time>2020-07-21T05:17:39Z</time>
      </trkpt>
      <trkpt lat="44.87854" lon="6.36277">
        <ele>3208.06</ele>
        <time>2020-07-21T05:18:12Z</time>
      </trkpt>
      <trkpt lat="44.87858" lon="6.36278">
        <ele>3211.9</ele>
        <time>2020-07-21T05:18:43Z</time>
      </trkpt>
      <trkpt lat="44.87862" lon="6.36279">
        <ele>3215.27</ele>
        <time>2020-07-21T05:19:55Z</time>
      </trkpt>
      <trkpt lat="44.87866" lon="6.36279">
        <ele>3219.11</ele>
        <time>2020-07-21T05:20:32Z</time>
      </trkpt>
      <trkpt lat="44.87872" lon="6.36278">
        <ele>3224.4</ele>
        <time>2020-07-21T05:21:20Z</time>
      </trkpt>
      <trkpt lat="44.87877" lon="6.36278">
        <ele>3227.76</ele>
        <time>2020-07-21T05:21:53Z</time>
      </trkpt>
      <trkpt lat="44.87878" lon="6.36273">
        <ele>3232.09</ele>
        <time>2020-07-21T05:22:08Z</time>
      </trkpt>
      <trkpt lat="44.87879" lon="6.36275">
        <ele>3232.09</ele>
        <time>2020-07-21T05:22:11Z</time>
      </trkpt>
      <trkpt lat="44.87886" lon="6.36275">
        <ele>3235.45</ele>
        <time>2020-07-21T05:22:52Z</time>
      </trkpt>
      <trkpt lat="44.87887" lon="6.36275">
        <ele>3239.78</ele>
        <time>2020-07-21T05:23:44Z</time>
      </trkpt>
      <trkpt lat="44.8789" lon="6.36277">
        <ele>3243.63</ele>
        <time>2020-07-21T05:24:18Z</time>
      </trkpt>
      <trkpt lat="44.87891" lon="6.36271">
        <ele>3246.99</ele>
        <time>2020-07-21T05:25:11Z</time>
      </trkpt>
      <trkpt lat="44.87894" lon="6.36277">
        <ele>3251.8</ele>
        <time>2020-07-21T05:25:39Z</time>
      </trkpt>
      <trkpt lat="44.87897" lon="6.36283">
        <ele>3255.16</ele>
        <time>2020-07-21T05:25:58Z</time>
      </trkpt>
      <trkpt lat="44.879" lon="6.36293">
        <ele>3261.89</ele>
        <time>2020-07-21T05:26:57Z</time>
      </trkpt>
      <trkpt lat="44.87902" lon="6.363">
        <ele>3266.22</ele>
        <time>2020-07-21T05:27:28Z</time>
      </trkpt>
      <trkpt lat="44.87905" lon="6.36302">
        <ele>3269.58</ele>
        <time>2020-07-21T05:28:03Z</time>
      </trkpt>
      <trkpt lat="44.87906" lon="6.36301">
        <ele>3269.58</ele>
        <time>2020-07-21T05:28:09Z</time>
      </trkpt>
      <trkpt lat="44.8791" lon="6.36299">
        <ele>3274.87</ele>
        <time>2020-07-21T05:28:54Z</time>
      </trkpt>
      <trkpt lat="44.87915" lon="6.36299">
        <ele>3278.71</ele>
        <time>2020-07-21T05:29:37Z</time>
      </trkpt>
      <trkpt lat="44.8792" lon="6.363">
        <ele>3284</ele>
        <time>2020-07-21T05:30:39Z</time>
      </trkpt>
      <trkpt lat="44.87921" lon="6.36304">
        <ele>3287.37</ele>
        <time>2020-07-21T05:31:13Z</time>
      </trkpt>
      <trkpt lat="44.87924" lon="6.36306">
        <ele>3291.21</ele>
        <time>2020-07-21T05:31:49Z</time>
      </trkpt>
      <trkpt lat="44.87925" lon="6.36302">
        <ele>3295.54</ele>
        <time>2020-07-21T05:32:27Z</time>
      </trkpt>
      <trkpt lat="44.87932" lon="6.36299">
        <ele>3299.86</ele>
        <time>2020-07-21T05:32:58Z</time>
      </trkpt>
      <trkpt lat="44.8794" lon="6.36293">
        <ele>3303.71</ele>
        <time>2020-07-21T05:33:25Z</time>
      </trkpt>
      <trkpt lat="44.87949" lon="6.36279">
        <ele>3307.07</ele>
        <time>2020-07-21T05:34:16Z</time>
      </trkpt>
      <trkpt lat="44.87965" lon="6.36251">
        <ele>3310.92</ele>
        <time>2020-07-21T05:35:46Z</time>
      </trkpt>
      <trkpt lat="44.87977" lon="6.36239">
        <ele>3315.24</ele>
        <time>2020-07-21T05:37:14Z</time>
      </trkpt>
      <trkpt lat="44.87979" lon="6.36244">
        <ele>3318.61</ele>
        <time>2020-07-21T05:38:32Z</time>
      </trkpt>
      <trkpt lat="44.87983" lon="6.36241">
        <ele>3322.45</ele>
        <time>2020-07-21T05:39:06Z</time>
      </trkpt>
      <trkpt lat="44.87986" lon="6.36235">
        <ele>3326.78</ele>
        <time>2020-07-21T05:39:47Z</time>
      </trkpt>
      <trkpt lat="44.8799" lon="6.3623">
        <ele>3330.62</ele>
        <time>2020-07-21T05:40:22Z</time>
      </trkpt>
      <trkpt lat="44.87991" lon="6.36224">
        <ele>3334.95</ele>
        <time>2020-07-21T05:41:04Z</time>
      </trkpt>
      <trkpt lat="44.87991" lon="6.3622">
        <ele>3338.32</ele>
        <time>2020-07-21T05:41:40Z</time>
      </trkpt>
      <trkpt lat="44.87995" lon="6.36214">
        <ele>3344.56</ele>
        <time>2020-07-21T05:42:34Z</time>
      </trkpt>
      <trkpt lat="44.87997" lon="6.36221">
        <ele>3347.93</ele>
        <time>2020-07-21T05:43:29Z</time>
      </trkpt>
      <trkpt lat="44.88" lon="6.36217">
        <ele>3352.74</ele>
        <time>2020-07-21T05:44:00Z</time>
      </trkpt>
      <trkpt lat="44.87997" lon="6.3621">
        <ele>3356.58</ele>
        <time>2020-07-21T05:44:52Z</time>
      </trkpt>
      <trkpt lat="44.88" lon="6.36205">
        <ele>3360.43</ele>
        <time>2020-07-21T05:45:33Z</time>
      </trkpt>
      <trkpt lat="44.88002" lon="6.36199">
        <ele>3364.27</ele>
        <time>2020-07-21T05:46:12Z</time>
      </trkpt>
      <trkpt lat="44.88007" lon="6.36191">
        <ele>3367.64</ele>
        <time>2020-07-21T05:46:43Z</time>
      </trkpt>
      <trkpt lat="44.88013" lon="6.36185">
        <ele>3372.44</ele>
        <time>2020-07-21T05:47:34Z</time>
      </trkpt>
      <trkpt lat="44.88016" lon="6.36182">
        <ele>3376.77</ele>
        <time>2020-07-21T05:48:20Z</time>
      </trkpt>
      <trkpt lat="44.88019" lon="6.36177">
        <ele>3380.61</ele>
        <time>2020-07-21T05:48:52Z</time>
      </trkpt>
      <trkpt lat="44.8802" lon="6.36174">
        <ele>3384.46</ele>
        <time>2020-07-21T05:49:29Z</time>
      </trkpt>
      <trkpt lat="44.88026" lon="6.36169">
        <ele>3390.23</ele>
        <time>2020-07-21T05:50:36Z</time>
      </trkpt>
      <trkpt lat="44.88027" lon="6.36166">
        <ele>3395.03</ele>
        <time>2020-07-21T05:51:26Z</time>
      </trkpt>
      <trkpt lat="44.88029" lon="6.36161">
        <ele>3398.4</ele>
        <time>2020-07-21T05:52:03Z</time>
      </trkpt>
      <trkpt lat="44.8803" lon="6.36159">
        <ele>3402.24</ele>
        <time>2020-07-21T05:52:43Z</time>
      </trkpt>
      <trkpt lat="44.88031" lon="6.36154">
        <ele>3405.61</ele>
        <time>2020-07-21T05:53:01Z</time>
      </trkpt>
      <trkpt lat="44.88034" lon="6.36146">
        <ele>3409.93</ele>
        <time>2020-07-21T05:53:32Z</time>
      </trkpt>
      <trkpt lat="44.88035" lon="6.36139">
        <ele>3414.74</ele>
        <time>2020-07-21T05:54:20Z</time>
      </trkpt>
      <trkpt lat="44.88039" lon="6.36138">
        <ele>3418.59</ele>
        <time>2020-07-21T05:54:50Z</time>
      </trkpt>
      <trkpt lat="44.88042" lon="6.36127">
        <ele>3426.28</ele>
        <time>2020-07-21T06:05:13Z</time>
      </trkpt>
      <trkpt lat="44.8805" lon="6.3612">
        <ele>3430.12</ele>
        <time>2020-07-21T06:05:45Z</time>
      </trkpt>
      <trkpt lat="44.88058" lon="6.36113">
        <ele>3433.97</ele>
        <time>2020-07-21T06:06:20Z</time>
      </trkpt>
      <trkpt lat="44.88068" lon="6.36111">
        <ele>3437.81</ele>
        <time>2020-07-21T06:07:08Z</time>
      </trkpt>
      <trkpt lat="44.88075" lon="6.36103">
        <ele>3442.14</ele>
        <time>2020-07-21T06:07:46Z</time>
      </trkpt>
      <trkpt lat="44.88079" lon="6.36085">
        <ele>3449.35</ele>
        <time>2020-07-21T06:09:57Z</time>
      </trkpt>
      <trkpt lat="44.8808" lon="6.36077">
        <ele>3454.64</ele>
        <time>2020-07-21T06:10:27Z</time>
      </trkpt>
      <trkpt lat="44.88075" lon="6.36069">
        <ele>3458.96</ele>
        <time>2020-07-21T06:11:04Z</time>
      </trkpt>
      <trkpt lat="44.88077" lon="6.36065">
        <ele>3462.33</ele>
        <time>2020-07-21T06:11:35Z</time>
      </trkpt>
      <trkpt lat="44.8808" lon="6.36062">
        <ele>3466.17</ele>
        <time>2020-07-21T06:12:12Z</time>
      </trkpt>
      <trkpt lat="44.8808" lon="6.36062">
        <ele>3466.17</ele>
        <time>2020-07-21T06:12:13Z</time>
      </trkpt>
      <trkpt lat="44.88082" lon="6.36054">
        <ele>3470.98</ele>
        <time>2020-07-21T06:12:46Z</time>
      </trkpt>
      <trkpt lat="44.88087" lon="6.36047">
        <ele>3476.75</ele>
        <time>2020-07-21T06:13:41Z</time>
      </trkpt>
      <trkpt lat="44.88091" lon="6.36044">
        <ele>3480.11</ele>
        <time>2020-07-21T06:14:41Z</time>
      </trkpt>
      <trkpt lat="44.88097" lon="6.36039">
        <ele>3483.96</ele>
        <time>2020-07-21T06:15:13Z</time>
      </trkpt>
      <trkpt lat="44.88096" lon="6.36038">
        <ele>3487.32</ele>
        <time>2020-07-21T06:16:27Z</time>
      </trkpt>
      <trkpt lat="44.88097" lon="6.36031">
        <ele>3490.68</ele>
        <time>2020-07-21T06:17:59Z</time>
      </trkpt>
      <trkpt lat="44.88097" lon="6.36028">
        <ele>3495.01</ele>
        <time>2020-07-21T06:18:35Z</time>
      </trkpt>
      <trkpt lat="44.88102" lon="6.36009">
        <ele>3507.99</ele>
        <time>2020-07-21T06:20:20Z</time>
      </trkpt>
      <trkpt lat="44.8811" lon="6.35994">
        <ele>3521.45</ele>
        <time>2020-07-21T06:28:44Z</time>
      </trkpt>
      <trkpt lat="44.88113" lon="6.3599">
        <ele>3520.97</ele>
        <time>2020-07-21T06:29:21Z</time>
      </trkpt>
      <trkpt lat="44.88111" lon="6.35985">
        <ele>3530.1</ele>
        <time>2020-07-21T06:31:03Z</time>
      </trkpt>
      <trkpt lat="44.88112" lon="6.35981">
        <ele>3534.9</ele>
        <time>2020-07-21T06:33:59Z</time>
      </trkpt>
      <trkpt lat="44.88117" lon="6.35974">
        <ele>3538.75</ele>
        <time>2020-07-21T06:37:44Z</time>
      </trkpt>
      <trkpt lat="44.88115" lon="6.35972">
        <ele>3542.6</ele>
        <time>2020-07-21T06:38:29Z</time>
      </trkpt>
      <trkpt lat="44.88116" lon="6.35972">
        <ele>3542.6</ele>
        <time>2020-07-21T06:38:55Z</time>
      </trkpt>
      <trkpt lat="44.8812" lon="6.35963">
        <ele>3547.4</ele>
        <time>2020-07-21T06:39:57Z</time>
      </trkpt>
      <trkpt lat="44.88121" lon="6.35959">
        <ele>3552.21</ele>
        <time>2020-07-21T06:40:44Z</time>
      </trkpt>
      <trkpt lat="44.88122" lon="6.35959">
        <ele>3555.57</ele>
        <time>2020-07-21T06:41:21Z</time>
      </trkpt>
      <trkpt lat="44.88125" lon="6.35956">
        <ele>3558.94</ele>
        <time>2020-07-21T06:41:55Z</time>
      </trkpt>
      <trkpt lat="44.88127" lon="6.35951">
        <ele>3563.26</ele>
        <time>2020-07-21T06:42:32Z</time>
      </trkpt>
      <trkpt lat="44.8813" lon="6.35948">
        <ele>3567.11</ele>
        <time>2020-07-21T06:43:06Z</time>
      </trkpt>
      <trkpt lat="44.88134" lon="6.35944">
        <ele>3571.92</ele>
        <time>2020-07-21T06:43:41Z</time>
      </trkpt>
      <trkpt lat="44.88137" lon="6.35938">
        <ele>3578.16</ele>
        <time>2020-07-21T06:44:45Z</time>
      </trkpt>
      <trkpt lat="44.88141" lon="6.35932">
        <ele>3582.49</ele>
        <time>2020-07-21T06:45:17Z</time>
      </trkpt>
      <trkpt lat="44.88151" lon="6.35915">
        <ele>3594.99</ele>
        <time>2020-07-21T06:47:30Z</time>
      </trkpt>
      <trkpt lat="44.88151" lon="6.35906">
        <ele>3600.27</ele>
        <time>2020-07-21T06:48:17Z</time>
      </trkpt>
      <trkpt lat="44.88156" lon="6.35903">
        <ele>3608.45</ele>
        <time>2020-07-21T07:03:03Z</time>
      </trkpt>
      <trkpt lat="44.88171" lon="6.35899">
        <ele>3613.73</ele>
        <time>2020-07-21T07:03:45Z</time>
      </trkpt>
      <trkpt lat="44.88184" lon="6.35893">
        <ele>3619.02</ele>
        <time>2020-07-21T07:04:30Z</time>
      </trkpt>
      <trkpt lat="44.88193" lon="6.35889">
        <ele>3623.35</ele>
        <time>2020-07-21T07:05:10Z</time>
      </trkpt>
      <trkpt lat="44.882" lon="6.35883">
        <ele>3626.71</ele>
        <time>2020-07-21T07:05:47Z</time>
      </trkpt>
      <trkpt lat="44.88214" lon="6.35876">
        <ele>3631.04</ele>
        <time>2020-07-21T07:06:25Z</time>
      </trkpt>
      <trkpt lat="44.88228" lon="6.35873">
        <ele>3635.84</ele>
        <time>2020-07-21T07:07:03Z</time>
      </trkpt>
      <trkpt lat="44.88241" lon="6.3588">
        <ele>3640.65</ele>
        <time>2020-07-21T07:07:41Z</time>
      </trkpt>
      <trkpt lat="44.88249" lon="6.35862">
        <ele>3644.98</ele>
        <time>2020-07-21T07:08:19Z</time>
      </trkpt>
      <trkpt lat="44.88258" lon="6.35847">
        <ele>3650.26</ele>
        <time>2020-07-21T07:09:11Z</time>
      </trkpt>
      <trkpt lat="44.88261" lon="6.35841">
        <ele>3653.63</ele>
        <time>2020-07-21T07:09:44Z</time>
      </trkpt>
      <trkpt lat="44.88263" lon="6.35837">
        <ele>3656.99</ele>
        <time>2020-07-21T07:10:15Z</time>
      </trkpt>
      <trkpt lat="44.88264" lon="6.35832">
        <ele>3660.36</ele>
        <time>2020-07-21T07:11:06Z</time>
      </trkpt>
      <trkpt lat="44.88268" lon="6.35823">
        <ele>3664.68</ele>
        <time>2020-07-21T07:11:51Z</time>
      </trkpt>
      <trkpt lat="44.88271" lon="6.35812">
        <ele>3669.01</ele>
        <time>2020-07-21T07:12:41Z</time>
      </trkpt>
      <trkpt lat="44.88275" lon="6.35803">
        <ele>3674.3</ele>
        <time>2020-07-21T07:13:47Z</time>
      </trkpt>
      <trkpt lat="44.8828" lon="6.35791">
        <ele>3679.1</ele>
        <time>2020-07-21T07:14:29Z</time>
      </trkpt>
      <trkpt lat="44.88281" lon="6.35785">
        <ele>3682.47</ele>
        <time>2020-07-21T07:15:06Z</time>
      </trkpt>
      <trkpt lat="44.88284" lon="6.35779">
        <ele>3686.79</ele>
        <time>2020-07-21T07:16:11Z</time>
      </trkpt>
      <trkpt lat="44.88286" lon="6.35775">
        <ele>3690.64</ele>
        <time>2020-07-21T07:17:05Z</time>
      </trkpt>
      <trkpt lat="44.88287" lon="6.35771">
        <ele>3694</ele>
        <time>2020-07-21T07:17:42Z</time>
      </trkpt>
      <trkpt lat="44.88291" lon="6.35769">
        <ele>3698.33</ele>
        <time>2020-07-21T07:18:42Z</time>
      </trkpt>
      <trkpt lat="44.88295" lon="6.35762">
        <ele>3702.66</ele>
        <time>2020-07-21T07:19:35Z</time>
      </trkpt>
      <trkpt lat="44.88299" lon="6.3576">
        <ele>3707.46</ele>
        <time>2020-07-21T07:20:39Z</time>
      </trkpt>
      <trkpt lat="44.88299" lon="6.35761">
        <ele>3711.31</ele>
        <time>2020-07-21T07:21:20Z</time>
      </trkpt>
      <trkpt lat="44.88301" lon="6.35761">
        <ele>3714.67</ele>
        <time>2020-07-21T07:21:56Z</time>
      </trkpt>
      <trkpt lat="44.883" lon="6.35758">
        <ele>3719.96</ele>
        <time>2020-07-21T07:22:56Z</time>
      </trkpt>
      <trkpt lat="44.88306" lon="6.35749">
        <ele>3724.77</ele>
        <time>2020-07-21T07:23:57Z</time>
      </trkpt>
      <trkpt lat="44.88311" lon="6.35746">
        <ele>3729.57</ele>
        <time>2020-07-21T07:25:37Z</time>
      </trkpt>
      <trkpt lat="44.88316" lon="6.35738">
        <ele>3738.22</ele>
        <time>2020-07-21T07:28:10Z</time>
      </trkpt>
      <trkpt lat="44.88315" lon="6.35734">
        <ele>3734.38</ele>
        <time>2020-07-21T07:29:26Z</time>
      </trkpt>
      <trkpt lat="44.88325" lon="6.35741">
        <ele>3748.8</ele>
        <time>2020-07-21T07:46:17Z</time>
      </trkpt>
      <trkpt lat="44.8833" lon="6.35744">
        <ele>3752.16</ele>
        <time>2020-07-21T07:46:53Z</time>
      </trkpt>
      <trkpt lat="44.88331" lon="6.35739">
        <ele>3756.01</ele>
        <time>2020-07-21T07:47:29Z</time>
      </trkpt>
      <trkpt lat="44.88331" lon="6.35726">
        <ele>3761.3</ele>
        <time>2020-07-21T07:48:36Z</time>
      </trkpt>
      <trkpt lat="44.88333" lon="6.35722">
        <ele>3764.66</ele>
        <time>2020-07-21T07:49:21Z</time>
      </trkpt>
      <trkpt lat="44.88336" lon="6.35709">
        <ele>3762.26</ele>
        <time>2020-07-21T07:51:32Z</time>
      </trkpt>
      <trkpt lat="44.88338" lon="6.35706">
        <ele>3765.62</ele>
        <time>2020-07-21T07:52:10Z</time>
      </trkpt>
      <trkpt lat="44.88338" lon="6.35702">
        <ele>3768.99</ele>
        <time>2020-07-21T07:52:26Z</time>
      </trkpt>
      <trkpt lat="44.88339" lon="6.35693">
        <ele>3772.35</ele>
        <time>2020-07-21T07:52:52Z</time>
      </trkpt>
      <trkpt lat="44.88341" lon="6.35683">
        <ele>3776.2</ele>
        <time>2020-07-21T07:53:48Z</time>
      </trkpt>
      <trkpt lat="44.88342" lon="6.35678">
        <ele>3780.04</ele>
        <time>2020-07-21T07:54:23Z</time>
      </trkpt>
      <trkpt lat="44.88344" lon="6.35667">
        <ele>3783.41</ele>
        <time>2020-07-21T07:55:17Z</time>
      </trkpt>
      <trkpt lat="44.88343" lon="6.3566">
        <ele>3788.69</ele>
        <time>2020-07-21T07:56:13Z</time>
      </trkpt>
      <trkpt lat="44.88345" lon="6.35654">
        <ele>3792.54</ele>
        <time>2020-07-21T07:57:49Z</time>
      </trkpt>
      <trkpt lat="44.88349" lon="6.35652">
        <ele>3796.86</ele>
        <time>2020-07-21T07:58:51Z</time>
      </trkpt>
      <trkpt lat="44.88349" lon="6.35652">
        <ele>3796.86</ele>
        <time>2020-07-21T07:58:52Z</time>
      </trkpt>
      <trkpt lat="44.88353" lon="6.35655">
        <ele>3800.71</ele>
        <time>2020-07-21T07:59:30Z</time>
      </trkpt>
      <trkpt lat="44.88355" lon="6.3565">
        <ele>3804.55</ele>
        <time>2020-07-21T08:00:22Z</time>
      </trkpt>
      <trkpt lat="44.88355" lon="6.35651">
        <ele>3807.92</ele>
        <time>2020-07-21T08:02:54Z</time>
      </trkpt>
      <trkpt lat="44.88359" lon="6.35653">
        <ele>3811.28</ele>
        <time>2020-07-21T08:03:30Z</time>
      </trkpt>
      <trkpt lat="44.88361" lon="6.35658">
        <ele>3814.65</ele>
        <time>2020-07-21T08:04:08Z</time>
      </trkpt>
      <trkpt lat="44.88359" lon="6.35673">
        <ele>3818.97</ele>
        <time>2020-07-21T08:06:00Z</time>
      </trkpt>
      <trkpt lat="44.8836" lon="6.35673">
        <ele>3818.97</ele>
        <time>2020-07-21T08:06:35Z</time>
      </trkpt>
      <trkpt lat="44.88363" lon="6.35675">
        <ele>3822.34</ele>
        <time>2020-07-21T08:07:36Z</time>
      </trkpt>
      <trkpt lat="44.88363" lon="6.35672">
        <ele>3822.34</ele>
        <time>2020-07-21T08:07:54Z</time>
      </trkpt>
      <trkpt lat="44.88367" lon="6.35674">
        <ele>3825.7</ele>
        <time>2020-07-21T08:09:00Z</time>
      </trkpt>
      <trkpt lat="44.8837" lon="6.35674">
        <ele>3829.55</ele>
        <time>2020-07-21T08:09:38Z</time>
      </trkpt>
      <trkpt lat="44.88374" lon="6.35677">
        <ele>3832.91</ele>
        <time>2020-07-21T08:10:44Z</time>
      </trkpt>
      <trkpt lat="44.88374" lon="6.35676">
        <ele>3836.28</ele>
        <time>2020-07-21T08:11:19Z</time>
      </trkpt>
      <trkpt lat="44.88377" lon="6.35681">
        <ele>3839.64</ele>
        <time>2020-07-21T08:12:00Z</time>
      </trkpt>
      <trkpt lat="44.88373" lon="6.35685">
        <ele>3843.01</ele>
        <time>2020-07-21T08:13:18Z</time>
      </trkpt>
      <trkpt lat="44.88379" lon="6.35688">
        <ele>3846.37</ele>
        <time>2020-07-21T08:15:21Z</time>
      </trkpt>
      <trkpt lat="44.88383" lon="6.35688">
        <ele>3850.7</ele>
        <time>2020-07-21T08:15:51Z</time>
      </trkpt>
      <trkpt lat="44.88382" lon="6.35688">
        <ele>3850.7</ele>
        <time>2020-07-21T08:15:52Z</time>
      </trkpt>
      <trkpt lat="44.88392" lon="6.35692">
        <ele>3855.02</ele>
        <time>2020-07-21T08:16:41Z</time>
      </trkpt>
      <trkpt lat="44.88392" lon="6.3569">
        <ele>3855.02</ele>
        <time>2020-07-21T08:17:03Z</time>
      </trkpt>
      <trkpt lat="44.88394" lon="6.35683">
        <ele>3858.39</ele>
        <time>2020-07-21T08:17:36Z</time>
      </trkpt>
      <trkpt lat="44.88397" lon="6.35675">
        <ele>3861.75</ele>
        <time>2020-07-21T08:18:18Z</time>
      </trkpt>
      <trkpt lat="44.884" lon="6.35667">
        <ele>3865.6</ele>
        <time>2020-07-21T08:26:25Z</time>
      </trkpt>
      <trkpt lat="44.88402" lon="6.3566">
        <ele>3865.6</ele>
        <time>2020-07-21T08:26:48Z</time>
      </trkpt>
      <trkpt lat="44.88408" lon="6.35653">
        <ele>3868.96</ele>
        <time>2020-07-21T08:27:31Z</time>
      </trkpt>
      <trkpt lat="44.8841" lon="6.35653">
        <ele>3873.29</ele>
        <time>2020-07-21T08:30:21Z</time>
      </trkpt>
      <trkpt lat="44.88413" lon="6.35654">
        <ele>3877.62</ele>
        <time>2020-07-21T08:31:02Z</time>
      </trkpt>
      <trkpt lat="44.88417" lon="6.35648">
        <ele>3880.98</ele>
        <time>2020-07-21T08:31:42Z</time>
      </trkpt>
      <trkpt lat="44.8842" lon="6.35638">
        <ele>3884.34</ele>
        <time>2020-07-21T08:32:35Z</time>
      </trkpt>
      <trkpt lat="44.88421" lon="6.35637">
        <ele>3887.71</ele>
        <time>2020-07-21T08:33:31Z</time>
      </trkpt>
      <trkpt lat="44.88424" lon="6.35637">
        <ele>3891.07</ele>
        <time>2020-07-21T08:34:37Z</time>
      </trkpt>
      <trkpt lat="44.88427" lon="6.35634">
        <ele>3894.92</ele>
        <time>2020-07-21T08:35:59Z</time>
      </trkpt>
      <trkpt lat="44.88428" lon="6.35629">
        <ele>3898.28</ele>
        <time>2020-07-21T08:36:45Z</time>
      </trkpt>
      <trkpt lat="44.88441" lon="6.35618">
        <ele>3914.15</ele>
        <time>2020-07-21T08:40:22Z</time>
      </trkpt>
      <trkpt lat="44.88444" lon="6.35617">
        <ele>3917.51</ele>
        <time>2020-07-21T08:40:57Z</time>
      </trkpt>
      <trkpt lat="44.88449" lon="6.35615">
        <ele>3921.35</ele>
        <time>2020-07-21T08:41:28Z</time>
      </trkpt>
      <trkpt lat="44.88452" lon="6.35617">
        <ele>3925.68</ele>
        <time>2020-07-21T08:41:57Z</time>
      </trkpt>
      <trkpt lat="44.88457" lon="6.35616">
        <ele>3929.53</ele>
        <time>2020-07-21T08:42:52Z</time>
      </trkpt>
      <trkpt lat="44.88461" lon="6.35608">
        <ele>3934.33</ele>
        <time>2020-07-21T08:44:00Z</time>
      </trkpt>
      <trkpt lat="44.88468" lon="6.35595">
        <ele>3942.02</ele>
        <time>2020-07-21T08:45:24Z</time>
      </trkpt>
      <trkpt lat="44.88471" lon="6.35586">
        <ele>3945.39</ele>
        <time>2020-07-21T08:46:04Z</time>
      </trkpt>
      <trkpt lat="44.88479" lon="6.35601">
        <ele>3951.16</ele>
        <time>2020-07-21T08:51:03Z</time>
      </trkpt>
      <trkpt lat="44.88471" lon="6.35593">
        <ele>3946.35</ele>
        <time>2020-07-21T09:16:53Z</time>
      </trkpt>
      <trkpt lat="44.88467" lon="6.356">
        <ele>3941.54</ele>
        <time>2020-07-21T09:17:54Z</time>
      </trkpt>
      <trkpt lat="44.88457" lon="6.35618">
        <ele>3930.97</ele>
        <time>2020-07-21T09:19:10Z</time>
      </trkpt>
      <trkpt lat="44.88433" lon="6.35619">
        <ele>3906.94</ele>
        <time>2020-07-21T09:23:03Z</time>
      </trkpt>
      <trkpt lat="44.88431" lon="6.35625">
        <ele>3903.57</ele>
        <time>2020-07-21T09:23:41Z</time>
      </trkpt>
      <trkpt lat="44.88429" lon="6.35636">
        <ele>3899.73</ele>
        <time>2020-07-21T09:24:55Z</time>
      </trkpt>
      <trkpt lat="44.88428" lon="6.35638">
        <ele>3896.36</ele>
        <time>2020-07-21T09:25:29Z</time>
      </trkpt>
      <trkpt lat="44.88423" lon="6.35636">
        <ele>3893</ele>
        <time>2020-07-21T09:26:32Z</time>
      </trkpt>
      <trkpt lat="44.88421" lon="6.35643">
        <ele>3889.63</ele>
        <time>2020-07-21T09:27:37Z</time>
      </trkpt>
      <trkpt lat="44.88419" lon="6.35647">
        <ele>3885.79</ele>
        <time>2020-07-21T09:28:17Z</time>
      </trkpt>
      <trkpt lat="44.88415" lon="6.35651">
        <ele>3880.98</ele>
        <time>2020-07-21T09:29:10Z</time>
      </trkpt>
      <trkpt lat="44.88411" lon="6.35652">
        <ele>3877.62</ele>
        <time>2020-07-21T09:29:47Z</time>
      </trkpt>
      <trkpt lat="44.88409" lon="6.35653">
        <ele>3874.25</ele>
        <time>2020-07-21T09:30:51Z</time>
      </trkpt>
      <trkpt lat="44.88402" lon="6.35658">
        <ele>3869.92</ele>
        <time>2020-07-21T09:32:07Z</time>
      </trkpt>
      <trkpt lat="44.88397" lon="6.35673">
        <ele>3866.56</ele>
        <time>2020-07-21T09:33:04Z</time>
      </trkpt>
      <trkpt lat="44.88394" lon="6.35679">
        <ele>3863.2</ele>
        <time>2020-07-21T09:33:42Z</time>
      </trkpt>
      <trkpt lat="44.88393" lon="6.35689">
        <ele>3858.87</ele>
        <time>2020-07-21T09:40:09Z</time>
      </trkpt>
      <trkpt lat="44.88384" lon="6.35688">
        <ele>3852.62</ele>
        <time>2020-07-21T09:50:04Z</time>
      </trkpt>
      <trkpt lat="44.88381" lon="6.35685">
        <ele>3848.78</ele>
        <time>2020-07-21T09:52:04Z</time>
      </trkpt>
      <trkpt lat="44.88377" lon="6.35677">
        <ele>3841.57</ele>
        <time>2020-07-21T09:53:55Z</time>
      </trkpt>
      <trkpt lat="44.88378" lon="6.35676">
        <ele>3841.57</ele>
        <time>2020-07-21T09:54:26Z</time>
      </trkpt>
      <trkpt lat="44.88373" lon="6.35672">
        <ele>3836.28</ele>
        <time>2020-07-21T09:56:46Z</time>
      </trkpt>
      <trkpt lat="44.88367" lon="6.35676">
        <ele>3830.99</ele>
        <time>2020-07-21T09:58:11Z</time>
      </trkpt>
      <trkpt lat="44.88365" lon="6.35678">
        <ele>3825.22</ele>
        <time>2020-07-21T10:00:05Z</time>
      </trkpt>
      <trkpt lat="44.88363" lon="6.3567">
        <ele>3820.9</ele>
        <time>2020-07-21T10:01:29Z</time>
      </trkpt>
      <trkpt lat="44.88359" lon="6.35654">
        <ele>3816.57</ele>
        <time>2020-07-21T10:02:49Z</time>
      </trkpt>
      <trkpt lat="44.88357" lon="6.35652">
        <ele>3812.25</ele>
        <time>2020-07-21T10:04:08Z</time>
      </trkpt>
      <trkpt lat="44.88352" lon="6.35654">
        <ele>3807.44</ele>
        <time>2020-07-21T10:06:05Z</time>
      </trkpt>
      <trkpt lat="44.88348" lon="6.35656">
        <ele>3802.63</ele>
        <time>2020-07-21T10:06:43Z</time>
      </trkpt>
      <trkpt lat="44.88343" lon="6.3566">
        <ele>3797.83</ele>
        <time>2020-07-21T10:07:19Z</time>
      </trkpt>
      <trkpt lat="44.8834" lon="6.35668">
        <ele>3793.02</ele>
        <time>2020-07-21T10:08:20Z</time>
      </trkpt>
      <trkpt lat="44.88341" lon="6.35679">
        <ele>3789.65</ele>
        <time>2020-07-21T10:09:36Z</time>
      </trkpt>
      <trkpt lat="44.88339" lon="6.35687">
        <ele>3785.33</ele>
        <time>2020-07-21T10:10:29Z</time>
      </trkpt>
      <trkpt lat="44.88337" lon="6.35694">
        <ele>3781.48</ele>
        <time>2020-07-21T10:11:07Z</time>
      </trkpt>
      <trkpt lat="44.88337" lon="6.35706">
        <ele>3777.16</ele>
        <time>2020-07-21T10:11:43Z</time>
      </trkpt>
      <trkpt lat="44.88333" lon="6.3571">
        <ele>3772.83</ele>
        <time>2020-07-21T10:12:22Z</time>
      </trkpt>
      <trkpt lat="44.88334" lon="6.35716">
        <ele>3772.83</ele>
        <time>2020-07-21T10:12:43Z</time>
      </trkpt>
      <trkpt lat="44.88329" lon="6.35736">
        <ele>3769.47</ele>
        <time>2020-07-21T10:14:43Z</time>
      </trkpt>
      <trkpt lat="44.8833" lon="6.35743">
        <ele>3765.62</ele>
        <time>2020-07-21T10:15:26Z</time>
      </trkpt>
      <trkpt lat="44.88325" lon="6.35748">
        <ele>3760.81</ele>
        <time>2020-07-21T10:17:13Z</time>
      </trkpt>
      <trkpt lat="44.88325" lon="6.35754">
        <ele>3757.45</ele>
        <time>2020-07-21T10:17:59Z</time>
      </trkpt>
      <trkpt lat="44.88321" lon="6.35749">
        <ele>3753.6</ele>
        <time>2020-07-21T10:20:03Z</time>
      </trkpt>
      <trkpt lat="44.8832" lon="6.35748">
        <ele>3753.6</ele>
        <time>2020-07-21T10:20:32Z</time>
      </trkpt>
      <trkpt lat="44.88316" lon="6.35747">
        <ele>3750.24</ele>
        <time>2020-07-21T10:21:08Z</time>
      </trkpt>
      <trkpt lat="44.8832" lon="6.35746">
        <ele>3753.6</ele>
        <time>2020-07-21T10:23:41Z</time>
      </trkpt>
      <trkpt lat="44.88314" lon="6.35737">
        <ele>3750.24</ele>
        <time>2020-07-21T10:25:17Z</time>
      </trkpt>
      <trkpt lat="44.88311" lon="6.35743">
        <ele>3744.47</ele>
        <time>2020-07-21T10:33:22Z</time>
      </trkpt>
      <trkpt lat="44.88308" lon="6.35746">
        <ele>3739.67</ele>
        <time>2020-07-21T10:35:53Z</time>
      </trkpt>
      <trkpt lat="44.88309" lon="6.35754">
        <ele>3734.38</ele>
        <time>2020-07-21T10:37:11Z</time>
      </trkpt>
      <trkpt lat="44.88306" lon="6.35757">
        <ele>3731.01</ele>
        <time>2020-07-21T10:37:49Z</time>
      </trkpt>
      <trkpt lat="44.88304" lon="6.35759">
        <ele>3727.17</ele>
        <time>2020-07-21T10:38:27Z</time>
      </trkpt>
      <trkpt lat="44.88302" lon="6.35762">
        <ele>3723.8</ele>
        <time>2020-07-21T10:39:07Z</time>
      </trkpt>
      <trkpt lat="44.88297" lon="6.35761">
        <ele>3719.96</ele>
        <time>2020-07-21T10:40:05Z</time>
      </trkpt>
      <trkpt lat="44.88295" lon="6.35767">
        <ele>3715.15</ele>
        <time>2020-07-21T10:41:05Z</time>
      </trkpt>
      <trkpt lat="44.88293" lon="6.35769">
        <ele>3711.31</ele>
        <time>2020-07-21T10:41:44Z</time>
      </trkpt>
      <trkpt lat="44.88289" lon="6.35773">
        <ele>3706.5</ele>
        <time>2020-07-21T10:42:36Z</time>
      </trkpt>
      <trkpt lat="44.88288" lon="6.35777">
        <ele>3702.66</ele>
        <time>2020-07-21T10:43:19Z</time>
      </trkpt>
      <trkpt lat="44.88284" lon="6.35782">
        <ele>3699.29</ele>
        <time>2020-07-21T10:44:19Z</time>
      </trkpt>
      <trkpt lat="44.8828" lon="6.3579">
        <ele>3694.48</ele>
        <time>2020-07-21T10:45:04Z</time>
      </trkpt>
      <trkpt lat="44.88277" lon="6.358">
        <ele>3689.2</ele>
        <time>2020-07-21T10:45:45Z</time>
      </trkpt>
      <trkpt lat="44.88274" lon="6.35809">
        <ele>3683.91</ele>
        <time>2020-07-21T10:46:21Z</time>
      </trkpt>
      <trkpt lat="44.8827" lon="6.35815">
        <ele>3679.1</ele>
        <time>2020-07-21T10:46:57Z</time>
      </trkpt>
      <trkpt lat="44.88267" lon="6.35827">
        <ele>3673.33</ele>
        <time>2020-07-21T10:47:35Z</time>
      </trkpt>
      <trkpt lat="44.88262" lon="6.35837">
        <ele>3668.05</ele>
        <time>2020-07-21T10:48:10Z</time>
      </trkpt>
      <trkpt lat="44.88256" lon="6.35849">
        <ele>3662.28</ele>
        <time>2020-07-21T10:48:41Z</time>
      </trkpt>
      <trkpt lat="44.88246" lon="6.35863">
        <ele>3656.51</ele>
        <time>2020-07-21T10:49:14Z</time>
      </trkpt>
      <trkpt lat="44.88238" lon="6.35881">
        <ele>3652.19</ele>
        <time>2020-07-21T10:49:51Z</time>
      </trkpt>
      <trkpt lat="44.88225" lon="6.35889">
        <ele>3645.46</ele>
        <time>2020-07-21T10:51:49Z</time>
      </trkpt>
      <trkpt lat="44.88215" lon="6.35897">
        <ele>3640.17</ele>
        <time>2020-07-21T10:52:15Z</time>
      </trkpt>
      <trkpt lat="44.88208" lon="6.35905">
        <ele>3635.84</ele>
        <time>2020-07-21T10:53:28Z</time>
      </trkpt>
      <trkpt lat="44.88203" lon="6.35915">
        <ele>3632.48</ele>
        <time>2020-07-21T10:53:42Z</time>
      </trkpt>
      <trkpt lat="44.88196" lon="6.35921">
        <ele>3629.11</ele>
        <time>2020-07-21T10:53:55Z</time>
      </trkpt>
      <trkpt lat="44.88181" lon="6.35918">
        <ele>3623.83</ele>
        <time>2020-07-21T11:03:19Z</time>
      </trkpt>
      <trkpt lat="44.88165" lon="6.35912">
        <ele>3617.58</ele>
        <time>2020-07-21T11:04:14Z</time>
      </trkpt>
      <trkpt lat="44.8816" lon="6.35913">
        <ele>3614.21</ele>
        <time>2020-07-21T11:04:28Z</time>
      </trkpt>
      <trkpt lat="44.88151" lon="6.35911">
        <ele>3608.93</ele>
        <time>2020-07-21T11:05:02Z</time>
      </trkpt>
      <trkpt lat="44.88149" lon="6.35923">
        <ele>3599.31</ele>
        <time>2020-07-21T11:18:55Z</time>
      </trkpt>
      <trkpt lat="44.88144" lon="6.35929">
        <ele>3594.51</ele>
        <time>2020-07-21T11:19:41Z</time>
      </trkpt>
      <trkpt lat="44.88139" lon="6.35933">
        <ele>3590.66</ele>
        <time>2020-07-21T11:20:12Z</time>
      </trkpt>
      <trkpt lat="44.88135" lon="6.35936">
        <ele>3586.34</ele>
        <time>2020-07-21T11:20:46Z</time>
      </trkpt>
      <trkpt lat="44.88131" lon="6.35928">
        <ele>3581.05</ele>
        <time>2020-07-21T11:21:41Z</time>
      </trkpt>
      <trkpt lat="44.88126" lon="6.3593">
        <ele>3576.72</ele>
        <time>2020-07-21T11:22:13Z</time>
      </trkpt>
      <trkpt lat="44.88122" lon="6.35932">
        <ele>3573.36</ele>
        <time>2020-07-21T11:22:31Z</time>
      </trkpt>
      <trkpt lat="44.8812" lon="6.35934">
        <ele>3569.51</ele>
        <time>2020-07-21T11:23:20Z</time>
      </trkpt>
      <trkpt lat="44.88117" lon="6.35937">
        <ele>3566.15</ele>
        <time>2020-07-21T11:23:54Z</time>
      </trkpt>
      <trkpt lat="44.88116" lon="6.35938">
        <ele>3562.78</ele>
        <time>2020-07-21T11:24:33Z</time>
      </trkpt>
      <trkpt lat="44.88115" lon="6.35939">
        <ele>3559.42</ele>
        <time>2020-07-21T11:26:00Z</time>
      </trkpt>
      <trkpt lat="44.88113" lon="6.35946">
        <ele>3554.13</ele>
        <time>2020-07-21T11:28:10Z</time>
      </trkpt>
      <trkpt lat="44.88106" lon="6.35961">
        <ele>3541.63</ele>
        <time>2020-07-21T11:32:13Z</time>
      </trkpt>
      <trkpt lat="44.88108" lon="6.35968">
        <ele>3538.27</ele>
        <time>2020-07-21T11:32:55Z</time>
      </trkpt>
      <trkpt lat="44.88109" lon="6.3597">
        <ele>3538.27</ele>
        <time>2020-07-21T11:33:15Z</time>
      </trkpt>
      <trkpt lat="44.88112" lon="6.35972">
        <ele>3543.56</ele>
        <time>2020-07-21T11:34:42Z</time>
      </trkpt>
      <trkpt lat="44.88115" lon="6.3597">
        <ele>3546.92</ele>
        <time>2020-07-21T11:35:43Z</time>
      </trkpt>
      <trkpt lat="44.88116" lon="6.35972">
        <ele>3543.08</ele>
        <time>2020-07-21T11:40:01Z</time>
      </trkpt>
      <trkpt lat="44.88111" lon="6.35982">
        <ele>3539.71</ele>
        <time>2020-07-21T11:41:20Z</time>
      </trkpt>
      <trkpt lat="44.88108" lon="6.35989">
        <ele>3534.42</ele>
        <time>2020-07-21T11:57:13Z</time>
      </trkpt>
      <trkpt lat="44.88108" lon="6.35993">
        <ele>3531.06</ele>
        <time>2020-07-21T11:57:36Z</time>
      </trkpt>
      <trkpt lat="44.88108" lon="6.35995">
        <ele>3527.21</ele>
        <time>2020-07-21T11:58:52Z</time>
      </trkpt>
      <trkpt lat="44.88107" lon="6.35997">
        <ele>3523.85</ele>
        <time>2020-07-21T11:59:36Z</time>
      </trkpt>
      <trkpt lat="44.88106" lon="6.36006">
        <ele>3517.12</ele>
        <time>2020-07-21T12:04:58Z</time>
      </trkpt>
      <trkpt lat="44.88104" lon="6.36014">
        <ele>3512.79</ele>
        <time>2020-07-21T12:05:34Z</time>
      </trkpt>
      <trkpt lat="44.88099" lon="6.3602">
        <ele>3507.99</ele>
        <time>2020-07-21T12:06:06Z</time>
      </trkpt>
      <trkpt lat="44.88093" lon="6.36029">
        <ele>3501.26</ele>
        <time>2020-07-21T12:08:38Z</time>
      </trkpt>
      <trkpt lat="44.88092" lon="6.36033">
        <ele>3496.45</ele>
        <time>2020-07-21T12:09:16Z</time>
      </trkpt>
      <trkpt lat="44.88096" lon="6.36037">
        <ele>3493.09</ele>
        <time>2020-07-21T12:10:28Z</time>
      </trkpt>
      <trkpt lat="44.88096" lon="6.36039">
        <ele>3488.76</ele>
        <time>2020-07-21T12:11:10Z</time>
      </trkpt>
      <trkpt lat="44.88096" lon="6.36044">
        <ele>3484.92</ele>
        <time>2020-07-21T12:11:54Z</time>
      </trkpt>
      <trkpt lat="44.88085" lon="6.36052">
        <ele>3478.67</ele>
        <time>2020-07-21T12:12:31Z</time>
      </trkpt>
      <trkpt lat="44.88081" lon="6.36061">
        <ele>3474.82</ele>
        <time>2020-07-21T12:13:06Z</time>
      </trkpt>
      <trkpt lat="44.88077" lon="6.36067">
        <ele>3469.05</ele>
        <time>2020-07-21T12:13:45Z</time>
      </trkpt>
      <trkpt lat="44.88078" lon="6.36078">
        <ele>3464.25</ele>
        <time>2020-07-21T12:14:19Z</time>
      </trkpt>
      <trkpt lat="44.88078" lon="6.36084">
        <ele>3458.96</ele>
        <time>2020-07-21T12:14:59Z</time>
      </trkpt>
      <trkpt lat="44.88077" lon="6.3609">
        <ele>3454.64</ele>
        <time>2020-07-21T12:15:19Z</time>
      </trkpt>
      <trkpt lat="44.88076" lon="6.36106">
        <ele>3450.31</ele>
        <time>2020-07-21T12:15:58Z</time>
      </trkpt>
      <trkpt lat="44.88066" lon="6.36114">
        <ele>3445.02</ele>
        <time>2020-07-21T12:16:29Z</time>
      </trkpt>
      <trkpt lat="44.88051" lon="6.36122">
        <ele>3439.25</ele>
        <time>2020-07-21T12:17:07Z</time>
      </trkpt>
      <trkpt lat="44.88045" lon="6.36127">
        <ele>3435.41</ele>
        <time>2020-07-21T12:17:41Z</time>
      </trkpt>
      <trkpt lat="44.88042" lon="6.36132">
        <ele>3431.08</ele>
        <time>2020-07-21T12:18:22Z</time>
      </trkpt>
      <trkpt lat="44.88039" lon="6.36137">
        <ele>3426.76</ele>
        <time>2020-07-21T12:19:04Z</time>
      </trkpt>
      <trkpt lat="44.88036" lon="6.36141">
        <ele>3422.43</ele>
        <time>2020-07-21T12:19:46Z</time>
      </trkpt>
      <trkpt lat="44.88033" lon="6.36143">
        <ele>3419.07</ele>
        <time>2020-07-21T12:20:10Z</time>
      </trkpt>
      <trkpt lat="44.88033" lon="6.36145">
        <ele>3419.07</ele>
        <time>2020-07-21T12:20:28Z</time>
      </trkpt>
      <trkpt lat="44.88035" lon="6.3615">
        <ele>3415.7</ele>
        <time>2020-07-21T12:20:47Z</time>
      </trkpt>
      <trkpt lat="44.88031" lon="6.36157">
        <ele>3411.86</ele>
        <time>2020-07-21T12:21:40Z</time>
      </trkpt>
      <trkpt lat="44.88029" lon="6.36159">
        <ele>3408.49</ele>
        <time>2020-07-21T12:22:27Z</time>
      </trkpt>
      <trkpt lat="44.8803" lon="6.36165">
        <ele>3405.13</ele>
        <time>2020-07-21T12:23:11Z</time>
      </trkpt>
      <trkpt lat="44.88029" lon="6.36173">
        <ele>3401.76</ele>
        <time>2020-07-21T12:23:44Z</time>
      </trkpt>
      <trkpt lat="44.88029" lon="6.36174">
        <ele>3398.4</ele>
        <time>2020-07-21T12:24:01Z</time>
      </trkpt>
      <trkpt lat="44.88023" lon="6.36181">
        <ele>3392.63</ele>
        <time>2020-07-21T12:24:35Z</time>
      </trkpt>
      <trkpt lat="44.8802" lon="6.36193">
        <ele>3386.86</ele>
        <time>2020-07-21T12:25:10Z</time>
      </trkpt>
      <trkpt lat="44.88018" lon="6.36204">
        <ele>3382.54</ele>
        <time>2020-07-21T12:25:52Z</time>
      </trkpt>
      <trkpt lat="44.88019" lon="6.36214">
        <ele>3378.69</ele>
        <time>2020-07-21T12:26:53Z</time>
      </trkpt>
      <trkpt lat="44.88016" lon="6.36216">
        <ele>3374.85</ele>
        <time>2020-07-21T12:27:10Z</time>
      </trkpt>
      <trkpt lat="44.88012" lon="6.36222">
        <ele>3371</ele>
        <time>2020-07-21T12:27:42Z</time>
      </trkpt>
      <trkpt lat="44.88011" lon="6.3623">
        <ele>3367.15</ele>
        <time>2020-07-21T12:28:27Z</time>
      </trkpt>
      <trkpt lat="44.88003" lon="6.36232">
        <ele>3361.39</ele>
        <time>2020-07-21T12:29:31Z</time>
      </trkpt>
      <trkpt lat="44.88002" lon="6.36236">
        <ele>3357.54</ele>
        <time>2020-07-21T12:29:49Z</time>
      </trkpt>
      <trkpt lat="44.87998" lon="6.36241">
        <ele>3352.74</ele>
        <time>2020-07-21T12:32:37Z</time>
      </trkpt>
      <trkpt lat="44.87998" lon="6.36247">
        <ele>3347.93</ele>
        <time>2020-07-21T12:34:36Z</time>
      </trkpt>
      <trkpt lat="44.87995" lon="6.36249">
        <ele>3343.6</ele>
        <time>2020-07-21T12:35:45Z</time>
      </trkpt>
      <trkpt lat="44.87993" lon="6.36245">
        <ele>3337.35</ele>
        <time>2020-07-21T12:38:19Z</time>
      </trkpt>
      <trkpt lat="44.87985" lon="6.36239">
        <ele>3332.07</ele>
        <time>2020-07-21T12:39:10Z</time>
      </trkpt>
      <trkpt lat="44.87983" lon="6.3624">
        <ele>3328.7</ele>
        <time>2020-07-21T12:39:25Z</time>
      </trkpt>
      <trkpt lat="44.87979" lon="6.36238">
        <ele>3325.34</ele>
        <time>2020-07-21T12:39:40Z</time>
      </trkpt>
      <trkpt lat="44.87972" lon="6.36236">
        <ele>3321.01</ele>
        <time>2020-07-21T12:41:53Z</time>
      </trkpt>
      <trkpt lat="44.87966" lon="6.36243">
        <ele>3317.65</ele>
        <time>2020-07-21T12:42:38Z</time>
      </trkpt>
      <trkpt lat="44.8796" lon="6.36243">
        <ele>3314.28</ele>
        <time>2020-07-21T12:43:48Z</time>
      </trkpt>
      <trkpt lat="44.87955" lon="6.36251">
        <ele>3314.28</ele>
        <time>2020-07-21T12:44:12Z</time>
      </trkpt>
      <trkpt lat="44.8795" lon="6.36261">
        <ele>3310.92</ele>
        <time>2020-07-21T12:45:17Z</time>
      </trkpt>
      <trkpt lat="44.87947" lon="6.36262">
        <ele>3310.92</ele>
        <time>2020-07-21T12:45:38Z</time>
      </trkpt>
      <trkpt lat="44.87932" lon="6.36303">
        <ele>3305.15</ele>
        <time>2020-07-21T12:50:10Z</time>
      </trkpt>
      <trkpt lat="44.87927" lon="6.36303">
        <ele>3301.79</ele>
        <time>2020-07-21T12:50:26Z</time>
      </trkpt>
      <trkpt lat="44.87925" lon="6.36303">
        <ele>3297.46</ele>
        <time>2020-07-21T12:51:05Z</time>
      </trkpt>
      <trkpt lat="44.87924" lon="6.36303">
        <ele>3294.09</ele>
        <time>2020-07-21T12:51:21Z</time>
      </trkpt>
      <trkpt lat="44.87923" lon="6.36298">
        <ele>3290.73</ele>
        <time>2020-07-21T12:51:42Z</time>
      </trkpt>
      <trkpt lat="44.87919" lon="6.36299">
        <ele>3285.92</ele>
        <time>2020-07-21T12:52:24Z</time>
      </trkpt>
      <trkpt lat="44.87914" lon="6.36297">
        <ele>3281.12</ele>
        <time>2020-07-21T12:53:35Z</time>
      </trkpt>
      <trkpt lat="44.87911" lon="6.36301">
        <ele>3276.79</ele>
        <time>2020-07-21T12:53:55Z</time>
      </trkpt>
      <trkpt lat="44.87908" lon="6.36303">
        <ele>3273.43</ele>
        <time>2020-07-21T12:54:07Z</time>
      </trkpt>
      <trkpt lat="44.87901" lon="6.36309">
        <ele>3267.66</ele>
        <time>2020-07-21T12:54:42Z</time>
      </trkpt>
      <trkpt lat="44.87896" lon="6.36294">
        <ele>3262.85</ele>
        <time>2020-07-21T12:55:39Z</time>
      </trkpt>
      <trkpt lat="44.87894" lon="6.36298">
        <ele>3259.49</ele>
        <time>2020-07-21T12:55:58Z</time>
      </trkpt>
      <trkpt lat="44.87891" lon="6.36306">
        <ele>3251.32</ele>
        <time>2020-07-21T12:56:51Z</time>
      </trkpt>
      <trkpt lat="44.87889" lon="6.36316">
        <ele>3246.99</ele>
        <time>2020-07-21T13:00:35Z</time>
      </trkpt>
      <trkpt lat="44.87882" lon="6.36314">
        <ele>3242.18</ele>
        <time>2020-07-21T13:01:30Z</time>
      </trkpt>
      <trkpt lat="44.87879" lon="6.36315">
        <ele>3237.86</ele>
        <time>2020-07-21T13:02:07Z</time>
      </trkpt>
      <trkpt lat="44.87876" lon="6.36314">
        <ele>3233.53</ele>
        <time>2020-07-21T13:02:35Z</time>
      </trkpt>
      <trkpt lat="44.8787" lon="6.36271">
        <ele>3227.76</ele>
        <time>2020-07-21T13:04:18Z</time>
      </trkpt>
      <trkpt lat="44.87867" lon="6.36278">
        <ele>3224.4</ele>
        <time>2020-07-21T13:04:54Z</time>
      </trkpt>
      <trkpt lat="44.87863" lon="6.36276">
        <ele>3218.15</ele>
        <time>2020-07-21T13:05:54Z</time>
      </trkpt>
      <trkpt lat="44.87862" lon="6.36283">
        <ele>3211.42</ele>
        <time>2020-07-21T13:08:14Z</time>
      </trkpt>
      <trkpt lat="44.87853" lon="6.36279">
        <ele>3206.13</ele>
        <time>2020-07-21T13:08:53Z</time>
      </trkpt>
      <trkpt lat="44.87851" lon="6.36285">
        <ele>3202.29</ele>
        <time>2020-07-21T13:09:33Z</time>
      </trkpt>
      <trkpt lat="44.87845" lon="6.36288">
        <ele>3193.16</ele>
        <time>2020-07-21T13:10:16Z</time>
      </trkpt>
      <trkpt lat="44.87843" lon="6.36289">
        <ele>3194.12</ele>
        <time>2020-07-21T13:10:35Z</time>
      </trkpt>
      <trkpt lat="44.87834" lon="6.36298">
        <ele>3180.66</ele>
        <time>2020-07-21T13:13:23Z</time>
      </trkpt>
      <trkpt lat="44.87831" lon="6.36301">
        <ele>3174.89</ele>
        <time>2020-07-21T13:14:08Z</time>
      </trkpt>
      <trkpt lat="44.87831" lon="6.36272">
        <ele>3165.76</ele>
        <time>2020-07-21T13:22:38Z</time>
      </trkpt>
      <trkpt lat="44.87832" lon="6.36264">
        <ele>3162.39</ele>
        <time>2020-07-21T13:22:51Z</time>
      </trkpt>
      <trkpt lat="44.87833" lon="6.36258">
        <ele>3159.03</ele>
        <time>2020-07-21T13:23:29Z</time>
      </trkpt>
      <trkpt lat="44.87832" lon="6.36246">
        <ele>3153.26</ele>
        <time>2020-07-21T13:24:08Z</time>
      </trkpt>
      <trkpt lat="44.87831" lon="6.36226">
        <ele>3149.9</ele>
        <time>2020-07-21T13:24:45Z</time>
      </trkpt>
      <trkpt lat="44.87828" lon="6.36223">
        <ele>3153.26</ele>
        <time>2020-07-21T13:24:59Z</time>
      </trkpt>
      <trkpt lat="44.87827" lon="6.36211">
        <ele>3149.9</ele>
        <time>2020-07-21T13:25:38Z</time>
      </trkpt>
      <trkpt lat="44.87823" lon="6.36203">
        <ele>3146.05</ele>
        <time>2020-07-21T13:25:53Z</time>
      </trkpt>
      <trkpt lat="44.87822" lon="6.36187">
        <ele>3142.69</ele>
        <time>2020-07-21T13:28:14Z</time>
      </trkpt>
      <trkpt lat="44.87825" lon="6.36182">
        <ele>3137.4</ele>
        <time>2020-07-21T13:30:03Z</time>
      </trkpt>
      <trkpt lat="44.87824" lon="6.36178">
        <ele>3133.55</ele>
        <time>2020-07-21T13:30:53Z</time>
      </trkpt>
      <trkpt lat="44.87823" lon="6.36166">
        <ele>3129.71</ele>
        <time>2020-07-21T13:31:41Z</time>
      </trkpt>
      <trkpt lat="44.87821" lon="6.36165">
        <ele>3129.71</ele>
        <time>2020-07-21T13:31:44Z</time>
      </trkpt>
      <trkpt lat="44.8782" lon="6.36161">
        <ele>3133.07</ele>
        <time>2020-07-21T13:31:59Z</time>
      </trkpt>
      <trkpt lat="44.87824" lon="6.36154">
        <ele>3132.59</ele>
        <time>2020-07-21T13:32:13Z</time>
      </trkpt>
      <trkpt lat="44.87825" lon="6.36148">
        <ele>3129.23</ele>
        <time>2020-07-21T13:32:31Z</time>
      </trkpt>
      <trkpt lat="44.87825" lon="6.36133">
        <ele>3122.98</ele>
        <time>2020-07-21T13:33:00Z</time>
      </trkpt>
      <trkpt lat="44.87826" lon="6.36127">
        <ele>3119.62</ele>
        <time>2020-07-21T13:33:14Z</time>
      </trkpt>
      <trkpt lat="44.87825" lon="6.36109">
        <ele>3114.33</ele>
        <time>2020-07-21T13:33:52Z</time>
      </trkpt>
      <trkpt lat="44.87826" lon="6.3608">
        <ele>3108.08</ele>
        <time>2020-07-21T13:35:08Z</time>
      </trkpt>
      <trkpt lat="44.87817" lon="6.36017">
        <ele>3098.47</ele>
        <time>2020-07-21T13:38:11Z</time>
      </trkpt>
      <trkpt lat="44.87811" lon="6.36021">
        <ele>3093.66</ele>
        <time>2020-07-21T13:38:49Z</time>
      </trkpt>
      <trkpt lat="44.87807" lon="6.36019">
        <ele>3089.33</ele>
        <time>2020-07-21T13:39:21Z</time>
      </trkpt>
      <trkpt lat="44.878" lon="6.36013">
        <ele>3079.72</ele>
        <time>2020-07-21T13:40:28Z</time>
      </trkpt>
      <trkpt lat="44.878" lon="6.36046">
        <ele>3074.91</ele>
        <time>2020-07-21T14:10:30Z</time>
      </trkpt>
      <trkpt lat="44.87803" lon="6.36059">
        <ele>3071.07</ele>
        <time>2020-07-21T14:11:23Z</time>
      </trkpt>
      <trkpt lat="44.87805" lon="6.36066">
        <ele>3067.22</ele>
        <time>2020-07-21T14:12:35Z</time>
      </trkpt>
      <trkpt lat="44.87802" lon="6.36074">
        <ele>3062.42</ele>
        <time>2020-07-21T14:13:15Z</time>
      </trkpt>
      <trkpt lat="44.87794" lon="6.36076">
        <ele>3058.57</ele>
        <time>2020-07-21T14:13:21Z</time>
      </trkpt>
      <trkpt lat="44.87787" lon="6.36083">
        <ele>3051.84</ele>
        <time>2020-07-21T14:13:38Z</time>
      </trkpt>
      <trkpt lat="44.87774" lon="6.36086">
        <ele>3048</ele>
        <time>2020-07-21T14:14:22Z</time>
      </trkpt>
      <trkpt lat="44.87762" lon="6.36098">
        <ele>3043.19</ele>
        <time>2020-07-21T14:14:37Z</time>
      </trkpt>
      <trkpt lat="44.87757" lon="6.36102">
        <ele>3039.83</ele>
        <time>2020-07-21T14:14:41Z</time>
      </trkpt>
      <trkpt lat="44.87752" lon="6.3611">
        <ele>3036.46</ele>
        <time>2020-07-21T14:14:46Z</time>
      </trkpt>
      <trkpt lat="44.87745" lon="6.36127">
        <ele>3031.66</ele>
        <time>2020-07-21T14:14:58Z</time>
      </trkpt>
      <trkpt lat="44.87744" lon="6.36128">
        <ele>3031.66</ele>
        <time>2020-07-21T14:14:59Z</time>
      </trkpt>
      <trkpt lat="44.8774" lon="6.36138">
        <ele>3028.29</ele>
        <time>2020-07-21T14:15:37Z</time>
      </trkpt>
      <trkpt lat="44.87734" lon="6.36179">
        <ele>3023</ele>
        <time>2020-07-21T14:16:12Z</time>
      </trkpt>
      <trkpt lat="44.8773" lon="6.36208">
        <ele>3017.23</ele>
        <time>2020-07-21T14:16:40Z</time>
      </trkpt>
      <trkpt lat="44.87724" lon="6.36224">
        <ele>3012.91</ele>
        <time>2020-07-21T14:16:51Z</time>
      </trkpt>
      <trkpt lat="44.87721" lon="6.36235">
        <ele>3008.1</ele>
        <time>2020-07-21T14:17:15Z</time>
      </trkpt>
      <trkpt lat="44.8771" lon="6.36242">
        <ele>3000.41</ele>
        <time>2020-07-21T14:17:40Z</time>
      </trkpt>
      <trkpt lat="44.87709" lon="6.36245">
        <ele>2998.97</ele>
        <time>2020-07-21T14:17:43Z</time>
      </trkpt>
      <trkpt lat="44.87704" lon="6.36248">
        <ele>2994.64</ele>
        <time>2020-07-21T14:17:47Z</time>
      </trkpt>
      <trkpt lat="44.87699" lon="6.36256">
        <ele>2989.84</ele>
        <time>2020-07-21T14:18:12Z</time>
      </trkpt>
      <trkpt lat="44.87692" lon="6.36262">
        <ele>2985.03</ele>
        <time>2020-07-21T14:18:36Z</time>
      </trkpt>
      <trkpt lat="44.87683" lon="6.36274">
        <ele>2977.82</ele>
        <time>2020-07-21T14:18:50Z</time>
      </trkpt>
      <trkpt lat="44.87678" lon="6.36279">
        <ele>2973.98</ele>
        <time>2020-07-21T14:19:09Z</time>
      </trkpt>
      <trkpt lat="44.8767" lon="6.36289">
        <ele>2967.73</ele>
        <time>2020-07-21T14:19:19Z</time>
      </trkpt>
      <trkpt lat="44.87663" lon="6.36292">
        <ele>2961.96</ele>
        <time>2020-07-21T14:19:35Z</time>
      </trkpt>
      <trkpt lat="44.87657" lon="6.36296">
        <ele>2955.71</ele>
        <time>2020-07-21T14:19:56Z</time>
      </trkpt>
      <trkpt lat="44.8765" lon="6.36299">
        <ele>2952.35</ele>
        <time>2020-07-21T14:20:08Z</time>
      </trkpt>
      <trkpt lat="44.87645" lon="6.36308">
        <ele>2948.5</ele>
        <time>2020-07-21T14:20:15Z</time>
      </trkpt>
      <trkpt lat="44.87642" lon="6.3631">
        <ele>2945.14</ele>
        <time>2020-07-21T14:20:27Z</time>
      </trkpt>
      <trkpt lat="44.87634" lon="6.36319">
        <ele>2939.37</ele>
        <time>2020-07-21T14:20:44Z</time>
      </trkpt>
      <trkpt lat="44.87629" lon="6.36326">
        <ele>2936</ele>
        <time>2020-07-21T14:21:02Z</time>
      </trkpt>
      <trkpt lat="44.87622" lon="6.36329">
        <ele>2932.16</ele>
        <time>2020-07-21T14:21:16Z</time>
      </trkpt>
      <trkpt lat="44.87612" lon="6.36338">
        <ele>2927.35</ele>
        <time>2020-07-21T14:21:30Z</time>
      </trkpt>
      <trkpt lat="44.87607" lon="6.36344">
        <ele>2923.99</ele>
        <time>2020-07-21T14:21:35Z</time>
      </trkpt>
      <trkpt lat="44.87597" lon="6.36342">
        <ele>2917.74</ele>
        <time>2020-07-21T14:21:43Z</time>
      </trkpt>
      <trkpt lat="44.87588" lon="6.36338">
        <ele>2913.41</ele>
        <time>2020-07-21T14:22:03Z</time>
      </trkpt>
      <trkpt lat="44.87579" lon="6.36348">
        <ele>2908.13</ele>
        <time>2020-07-21T14:22:14Z</time>
      </trkpt>
      <trkpt lat="44.87575" lon="6.36348">
        <ele>2904.28</ele>
        <time>2020-07-21T14:22:18Z</time>
      </trkpt>
      <trkpt lat="44.87573" lon="6.36347">
        <ele>2903.8</ele>
        <time>2020-07-21T14:22:19Z</time>
      </trkpt>
      <trkpt lat="44.87563" lon="6.36342">
        <ele>2900.44</ele>
        <time>2020-07-21T14:22:27Z</time>
      </trkpt>
      <trkpt lat="44.87562" lon="6.36341">
        <ele>2900.44</ele>
        <time>2020-07-21T14:22:28Z</time>
      </trkpt>
      <trkpt lat="44.8756" lon="6.3634">
        <ele>2899.47</ele>
        <time>2020-07-21T14:22:29Z</time>
      </trkpt>
      <trkpt lat="44.87552" lon="6.36343">
        <ele>2895.63</ele>
        <time>2020-07-21T14:22:34Z</time>
      </trkpt>
      <trkpt lat="44.87542" lon="6.36349">
        <ele>2890.82</ele>
        <time>2020-07-21T14:23:22Z</time>
      </trkpt>
      <trkpt lat="44.87524" lon="6.36359">
        <ele>2886.5</ele>
        <time>2020-07-21T14:25:04Z</time>
      </trkpt>
      <trkpt lat="44.87519" lon="6.36365">
        <ele>2883.13</ele>
        <time>2020-07-21T14:25:10Z</time>
      </trkpt>
      <trkpt lat="44.8752" lon="6.36375">
        <ele>2882.17</ele>
        <time>2020-07-21T14:25:18Z</time>
      </trkpt>
      <trkpt lat="44.87498" lon="6.36418">
        <ele>2877.36</ele>
        <time>2020-07-21T14:25:50Z</time>
      </trkpt>
      <trkpt lat="44.87487" lon="6.36447">
        <ele>2869.67</ele>
        <time>2020-07-21T14:26:11Z</time>
      </trkpt>
      <trkpt lat="44.87476" lon="6.36463">
        <ele>2866.31</ele>
        <time>2020-07-21T14:26:25Z</time>
      </trkpt>
      <trkpt lat="44.87463" lon="6.36494">
        <ele>2861.5</ele>
        <time>2020-07-21T14:26:46Z</time>
      </trkpt>
      <trkpt lat="44.87456" lon="6.36508">
        <ele>2857.66</ele>
        <time>2020-07-21T14:27:00Z</time>
      </trkpt>
      <trkpt lat="44.87455" lon="6.36539">
        <ele>2846.6</ele>
        <time>2020-07-21T14:28:22Z</time>
      </trkpt>
      <trkpt lat="44.87455" lon="6.36539">
        <ele>2853.81</ele>
        <time>2020-07-21T14:28:23Z</time>
      </trkpt>
      <trkpt lat="44.87458" lon="6.36569">
        <ele>2855.73</ele>
        <time>2020-07-21T14:30:57Z</time>
      </trkpt>
      <trkpt lat="44.87461" lon="6.36598">
        <ele>2843.24</ele>
        <time>2020-07-21T14:32:22Z</time>
      </trkpt>
      <trkpt lat="44.87471" lon="6.36635">
        <ele>2836.99</ele>
        <time>2020-07-21T14:34:18Z</time>
      </trkpt>
      <trkpt lat="44.87496" lon="6.36681">
        <ele>2828.82</ele>
        <time>2020-07-21T14:36:10Z</time>
      </trkpt>
      <trkpt lat="44.87492" lon="6.36693">
        <ele>2822.57</ele>
        <time>2020-07-21T14:36:35Z</time>
      </trkpt>
      <trkpt lat="44.87487" lon="6.36699">
        <ele>2816.8</ele>
        <time>2020-07-21T14:37:04Z</time>
      </trkpt>
      <trkpt lat="44.87488" lon="6.36711">
        <ele>2811.51</ele>
        <time>2020-07-21T14:38:09Z</time>
      </trkpt>
      <trkpt lat="44.87481" lon="6.36713">
        <ele>2807.67</ele>
        <time>2020-07-21T14:38:43Z</time>
      </trkpt>
      <trkpt lat="44.8747" lon="6.36712">
        <ele>2801.9</ele>
        <time>2020-07-21T14:39:19Z</time>
      </trkpt>
      <trkpt lat="44.87463" lon="6.36708">
        <ele>2796.13</ele>
        <time>2020-07-21T14:39:39Z</time>
      </trkpt>
      <trkpt lat="44.87452" lon="6.36715">
        <ele>2792.29</ele>
        <time>2020-07-21T14:40:05Z</time>
      </trkpt>
      <trkpt lat="44.87445" lon="6.36729">
        <ele>2784.6</ele>
        <time>2020-07-21T14:40:34Z</time>
      </trkpt>
      <trkpt lat="44.87436" lon="6.36737">
        <ele>2778.35</ele>
        <time>2020-07-21T14:41:02Z</time>
      </trkpt>
      <trkpt lat="44.87428" lon="6.36737">
        <ele>2774.98</ele>
        <time>2020-07-21T14:41:05Z</time>
      </trkpt>
      <trkpt lat="44.87417" lon="6.36734">
        <ele>2771.62</ele>
        <time>2020-07-21T14:41:09Z</time>
      </trkpt>
      <trkpt lat="44.87408" lon="6.36743">
        <ele>2767.29</ele>
        <time>2020-07-21T14:41:13Z</time>
      </trkpt>
      <trkpt lat="44.87394" lon="6.3676">
        <ele>2763.93</ele>
        <time>2020-07-21T14:41:18Z</time>
      </trkpt>
      <trkpt lat="44.87388" lon="6.3677">
        <ele>2759.6</ele>
        <time>2020-07-21T14:41:21Z</time>
      </trkpt>
      <trkpt lat="44.87386" lon="6.36774">
        <ele>2761.52</ele>
        <time>2020-07-21T14:41:22Z</time>
      </trkpt>
      <trkpt lat="44.8738" lon="6.36784">
        <ele>2756.72</ele>
        <time>2020-07-21T14:41:27Z</time>
      </trkpt>
      <trkpt lat="44.87379" lon="6.36786">
        <ele>2756.72</ele>
        <time>2020-07-21T14:41:28Z</time>
      </trkpt>
      <trkpt lat="44.87372" lon="6.36796">
        <ele>2752.87</ele>
        <time>2020-07-21T14:41:41Z</time>
      </trkpt>
      <trkpt lat="44.87365" lon="6.36809">
        <ele>2748.07</ele>
        <time>2020-07-21T14:41:54Z</time>
      </trkpt>
      <trkpt lat="44.87364" lon="6.36812">
        <ele>2748.07</ele>
        <time>2020-07-21T14:41:55Z</time>
      </trkpt>
      <trkpt lat="44.87358" lon="6.36817">
        <ele>2743.74</ele>
        <time>2020-07-21T14:42:02Z</time>
      </trkpt>
      <trkpt lat="44.87338" lon="6.36837">
        <ele>2739.41</ele>
        <time>2020-07-21T14:42:18Z</time>
      </trkpt>
      <trkpt lat="44.87332" lon="6.36848">
        <ele>2736.05</ele>
        <time>2020-07-21T14:42:25Z</time>
      </trkpt>
      <trkpt lat="44.87325" lon="6.36864">
        <ele>2732.2</ele>
        <time>2020-07-21T14:43:47Z</time>
      </trkpt>
      <trkpt lat="44.87325" lon="6.36865">
        <ele>2733.65</ele>
        <time>2020-07-21T14:43:49Z</time>
      </trkpt>
      <trkpt lat="44.87321" lon="6.36885">
        <ele>2727.88</ele>
        <time>2020-07-21T14:44:06Z</time>
      </trkpt>
      <trkpt lat="44.87317" lon="6.36897">
        <ele>2723.55</ele>
        <time>2020-07-21T14:44:17Z</time>
      </trkpt>
      <trkpt lat="44.87314" lon="6.36914">
        <ele>2719.23</ele>
        <time>2020-07-21T14:44:37Z</time>
      </trkpt>
      <trkpt lat="44.87314" lon="6.36928">
        <ele>2714.42</ele>
        <time>2020-07-21T14:44:53Z</time>
      </trkpt>
      <trkpt lat="44.87311" lon="6.36938">
        <ele>2710.57</ele>
        <time>2020-07-21T14:45:04Z</time>
      </trkpt>
      <trkpt lat="44.8731" lon="6.36938">
        <ele>2710.57</ele>
        <time>2020-07-21T14:45:05Z</time>
      </trkpt>
      <trkpt lat="44.87307" lon="6.36944">
        <ele>2704.33</ele>
        <time>2020-07-21T14:45:26Z</time>
      </trkpt>
      <trkpt lat="44.873" lon="6.36958">
        <ele>2697.6</ele>
        <time>2020-07-21T14:45:52Z</time>
      </trkpt>
      <trkpt lat="44.873" lon="6.36958">
        <ele>2697.6</ele>
        <time>2020-07-21T14:45:53Z</time>
      </trkpt>
      <trkpt lat="44.87299" lon="6.36968">
        <ele>2691.83</ele>
        <time>2020-07-21T14:46:30Z</time>
      </trkpt>
      <trkpt lat="44.87292" lon="6.36985">
        <ele>2684.14</ele>
        <time>2020-07-21T14:47:16Z</time>
      </trkpt>
      <trkpt lat="44.87289" lon="6.36993">
        <ele>2680.77</ele>
        <time>2020-07-21T14:47:29Z</time>
      </trkpt>
      <trkpt lat="44.87286" lon="6.36997">
        <ele>2677.41</ele>
        <time>2020-07-21T14:47:50Z</time>
      </trkpt>
      <trkpt lat="44.87293" lon="6.37001">
        <ele>2670.68</ele>
        <time>2020-07-21T14:48:16Z</time>
      </trkpt>
      <trkpt lat="44.87293" lon="6.37002">
        <ele>2670.68</ele>
        <time>2020-07-21T14:48:17Z</time>
      </trkpt>
      <trkpt lat="44.87288" lon="6.37012">
        <ele>2664.43</ele>
        <time>2020-07-21T14:48:54Z</time>
      </trkpt>
      <trkpt lat="44.87288" lon="6.37014">
        <ele>2666.83</ele>
        <time>2020-07-21T14:48:58Z</time>
      </trkpt>
      <trkpt lat="44.87289" lon="6.37022">
        <ele>2662.03</ele>
        <time>2020-07-21T14:49:11Z</time>
      </trkpt>
      <trkpt lat="44.87281" lon="6.37025">
        <ele>2658.66</ele>
        <time>2020-07-21T14:49:33Z</time>
      </trkpt>
      <trkpt lat="44.87278" lon="6.37029">
        <ele>2655.3</ele>
        <time>2020-07-21T14:49:57Z</time>
      </trkpt>
      <trkpt lat="44.87267" lon="6.37043">
        <ele>2648.57</ele>
        <time>2020-07-21T14:50:39Z</time>
      </trkpt>
      <trkpt lat="44.87264" lon="6.37046">
        <ele>2645.21</ele>
        <time>2020-07-21T14:50:50Z</time>
      </trkpt>
      <trkpt lat="44.87256" lon="6.37048">
        <ele>2639.44</ele>
        <time>2020-07-21T14:51:41Z</time>
      </trkpt>
      <trkpt lat="44.87246" lon="6.37052">
        <ele>2636.07</ele>
        <time>2020-07-21T14:52:01Z</time>
      </trkpt>
      <trkpt lat="44.87242" lon="6.37055">
        <ele>2632.71</ele>
        <time>2020-07-21T14:52:16Z</time>
      </trkpt>
      <trkpt lat="44.8724" lon="6.37059">
        <ele>2629.34</ele>
        <time>2020-07-21T14:52:46Z</time>
      </trkpt>
      <trkpt lat="44.87223" lon="6.37066">
        <ele>2622.61</ele>
        <time>2020-07-21T14:53:24Z</time>
      </trkpt>
      <trkpt lat="44.87216" lon="6.37068">
        <ele>2616.37</ele>
        <time>2020-07-21T14:53:42Z</time>
      </trkpt>
      <trkpt lat="44.87215" lon="6.37069">
        <ele>2616.37</ele>
        <time>2020-07-21T14:53:43Z</time>
      </trkpt>
      <trkpt lat="44.87205" lon="6.37072">
        <ele>2610.6</ele>
        <time>2020-07-21T14:54:17Z</time>
      </trkpt>
      <trkpt lat="44.87204" lon="6.37078">
        <ele>2606.27</ele>
        <time>2020-07-21T14:54:26Z</time>
      </trkpt>
      <trkpt lat="44.87203" lon="6.37079">
        <ele>2606.27</ele>
        <time>2020-07-21T14:54:27Z</time>
      </trkpt>
      <trkpt lat="44.87193" lon="6.37087">
        <ele>2601.95</ele>
        <time>2020-07-21T14:54:57Z</time>
      </trkpt>
      <trkpt lat="44.8719" lon="6.37104">
        <ele>2597.14</ele>
        <time>2020-07-21T14:58:45Z</time>
      </trkpt>
      <trkpt lat="44.87194" lon="6.37146">
        <ele>2588.97</ele>
        <time>2020-07-21T14:59:42Z</time>
      </trkpt>
      <trkpt lat="44.87193" lon="6.37169">
        <ele>2583.68</ele>
        <time>2020-07-21T15:00:10Z</time>
      </trkpt>
      <trkpt lat="44.87193" lon="6.37188">
        <ele>2577.43</ele>
        <time>2020-07-21T15:00:39Z</time>
      </trkpt>
      <trkpt lat="44.87191" lon="6.37206">
        <ele>2571.18</ele>
        <time>2020-07-21T15:01:14Z</time>
      </trkpt>
      <trkpt lat="44.87191" lon="6.37228">
        <ele>2565.42</ele>
        <time>2020-07-21T15:01:51Z</time>
      </trkpt>
      <trkpt lat="44.87187" lon="6.37262">
        <ele>2561.57</ele>
        <time>2020-07-21T15:02:28Z</time>
      </trkpt>
      <trkpt lat="44.87188" lon="6.37283">
        <ele>2558.21</ele>
        <time>2020-07-21T15:02:47Z</time>
      </trkpt>
      <trkpt lat="44.87192" lon="6.37324">
        <ele>2554.36</ele>
        <time>2020-07-21T15:03:23Z</time>
      </trkpt>
      <trkpt lat="44.87192" lon="6.37384">
        <ele>2550.03</ele>
        <time>2020-07-21T15:04:17Z</time>
      </trkpt>
      <trkpt lat="44.87207" lon="6.37423">
        <ele>2545.71</ele>
        <time>2020-07-21T15:04:58Z</time>
      </trkpt>
      <trkpt lat="44.87224" lon="6.37484">
        <ele>2541.38</ele>
        <time>2020-07-21T15:05:56Z</time>
      </trkpt>
      <trkpt lat="44.87224" lon="6.37485">
        <ele>2541.38</ele>
        <time>2020-07-21T15:05:57Z</time>
      </trkpt>
      <trkpt lat="44.87217" lon="6.37526">
        <ele>2537.54</ele>
        <time>2020-07-21T15:06:39Z</time>
      </trkpt>
      <trkpt lat="44.87236" lon="6.37572">
        <ele>2534.65</ele>
        <time>2020-07-21T15:08:52Z</time>
      </trkpt>
      <trkpt lat="44.87238" lon="6.37575">
        <ele>2534.65</ele>
        <time>2020-07-21T15:08:55Z</time>
      </trkpt>
      <trkpt lat="44.87225" lon="6.37891">
        <ele>2524.08</ele>
        <time>2020-07-21T15:13:25Z</time>
      </trkpt>
      <trkpt lat="44.87227" lon="6.37892">
        <ele>2524.08</ele>
        <time>2020-07-21T15:13:29Z</time>
      </trkpt>
      <trkpt lat="44.87205" lon="6.37996">
        <ele>2518.79</ele>
        <time>2020-07-21T15:15:28Z</time>
      </trkpt>
      <trkpt lat="44.87204" lon="6.38011">
        <ele>2515.43</ele>
        <time>2020-07-21T15:15:40Z</time>
      </trkpt>
      <trkpt lat="44.87197" lon="6.38065">
        <ele>2510.14</ele>
        <time>2020-07-21T15:16:35Z</time>
      </trkpt>
      <trkpt lat="44.87207" lon="6.38105">
        <ele>2506.77</ele>
        <time>2020-07-21T15:17:43Z</time>
      </trkpt>
      <trkpt lat="44.87221" lon="6.38153">
        <ele>2501.97</ele>
        <time>2020-07-21T15:18:45Z</time>
      </trkpt>
      <trkpt lat="44.87234" lon="6.38244">
        <ele>2494.28</ele>
        <time>2020-07-21T15:20:02Z</time>
      </trkpt>
      <trkpt lat="44.87244" lon="6.38293">
        <ele>2490.91</ele>
        <time>2020-07-21T15:20:36Z</time>
      </trkpt>
      <trkpt lat="44.87255" lon="6.38367">
        <ele>2487.55</ele>
        <time>2020-07-21T15:21:59Z</time>
      </trkpt>
      <trkpt lat="44.87267" lon="6.3847">
        <ele>2482.26</ele>
        <time>2020-07-21T15:23:13Z</time>
      </trkpt>
      <trkpt lat="44.87263" lon="6.38497">
        <ele>2478.9</ele>
        <time>2020-07-21T15:23:31Z</time>
      </trkpt>
      <trkpt lat="44.87268" lon="6.38505">
        <ele>2478.9</ele>
        <time>2020-07-21T15:23:43Z</time>
      </trkpt>
      <trkpt lat="44.87265" lon="6.38531">
        <ele>2475.05</ele>
        <time>2020-07-21T15:24:07Z</time>
      </trkpt>
      <trkpt lat="44.87261" lon="6.38562">
        <ele>2471.21</ele>
        <time>2020-07-21T15:24:37Z</time>
      </trkpt>
      <trkpt lat="44.87256" lon="6.3861">
        <ele>2467.36</ele>
        <time>2020-07-21T15:25:28Z</time>
      </trkpt>
      <trkpt lat="44.87254" lon="6.38622">
        <ele>2467.36</ele>
        <time>2020-07-21T15:25:37Z</time>
      </trkpt>
      <trkpt lat="44.87253" lon="6.38636">
        <ele>2464.96</ele>
        <time>2020-07-21T15:25:51Z</time>
      </trkpt>
      <trkpt lat="44.87261" lon="6.38653">
        <ele>2465.92</ele>
        <time>2020-07-21T15:26:05Z</time>
      </trkpt>
      <trkpt lat="44.87262" lon="6.38664">
        <ele>2465.92</ele>
        <time>2020-07-21T15:26:12Z</time>
      </trkpt>
      <trkpt lat="44.87263" lon="6.3869">
        <ele>2462.55</ele>
        <time>2020-07-21T15:26:28Z</time>
      </trkpt>
      <trkpt lat="44.87262" lon="6.38704">
        <ele>2462.55</ele>
        <time>2020-07-21T15:26:36Z</time>
      </trkpt>
      <trkpt lat="44.87283" lon="6.38816">
        <ele>2457.27</ele>
        <time>2020-07-21T15:28:25Z</time>
      </trkpt>
      <trkpt lat="44.87282" lon="6.38841">
        <ele>2458.71</ele>
        <time>2020-07-21T15:28:47Z</time>
      </trkpt>
      <trkpt lat="44.87295" lon="6.38855">
        <ele>2463.04</ele>
        <time>2020-07-21T15:29:18Z</time>
      </trkpt>
      <trkpt lat="44.87299" lon="6.3888">
        <ele>2468.32</ele>
        <time>2020-07-21T15:29:47Z</time>
      </trkpt>
      <trkpt lat="44.87302" lon="6.38891">
        <ele>2472.65</ele>
        <time>2020-07-21T15:30:15Z</time>
      </trkpt>
      <trkpt lat="44.87304" lon="6.38895">
        <ele>2476.49</ele>
        <time>2020-07-21T15:30:30Z</time>
      </trkpt>
      <trkpt lat="44.87307" lon="6.38897">
        <ele>2476.01</ele>
        <time>2020-07-21T15:30:39Z</time>
      </trkpt>
      <trkpt lat="44.8731" lon="6.38908">
        <ele>2480.34</ele>
        <time>2020-07-21T15:30:58Z</time>
      </trkpt>
      <trkpt lat="44.87327" lon="6.38897">
        <ele>2483.7</ele>
        <time>2020-07-21T15:31:33Z</time>
      </trkpt>
      <trkpt lat="44.87338" lon="6.38884">
        <ele>2488.03</ele>
        <time>2020-07-21T15:31:56Z</time>
      </trkpt>
      <trkpt lat="44.8734" lon="6.38914">
        <ele>2494.28</ele>
        <time>2020-07-21T15:32:28Z</time>
      </trkpt>
      <trkpt lat="44.87337" lon="6.38934">
        <ele>2498.12</ele>
        <time>2020-07-21T15:32:48Z</time>
      </trkpt>
      <trkpt lat="44.87327" lon="6.38971">
        <ele>2502.45</ele>
        <time>2020-07-21T15:33:22Z</time>
      </trkpt>
      <trkpt lat="44.87335" lon="6.39002">
        <ele>2507.26</ele>
        <time>2020-07-21T15:33:53Z</time>
      </trkpt>
      <trkpt lat="44.87338" lon="6.39023">
        <ele>2509.66</ele>
        <time>2020-07-21T15:34:15Z</time>
      </trkpt>
    </trkseg>
  </trk>
</gpx>